Observation data for Dell City 1N on 06/24/2019      Previous  Date  Next       Current Mesonet Observations  Soil Data  Daily Summary Page  Observations in Plain Language
KDC1 240500Z 25003KT 21/02 A2996 RMK A01 T02060022  RH  029%=      5-min Rain = 0
KDC1 240501Z 24002KT 21/02 A2996 RMK A01 T02060023  RH  030%=      5-min Rain = 0
KDC1 240502Z 20000KT 21/03 A2996 RMK A01 T02050025  RH  030%=      5-min Rain = 0
KDC1 240503Z 00000KT 21/03 A2996 RMK A01 T02050032  RH  032%=      5-min Rain = 0
KDC1 240504Z 06000KT 20/03 A2996 RMK A01 T02040030  RH  032%=      5-min Rain = 0
KDC1 240505Z 07001KT 20/04 A2996 RMK A01 T02030042  RH  035%=      5-min Rain = 0
KDC1 240506Z 04001KT 20/05 A2996 RMK A01 T02000047  RH  037%=      5-min Rain = 0
KDC1 240507Z 04003KT 20/03 A2996 RMK A01 T01970034  RH  034%=      5-min Rain = 0
KDC1 240508Z 36002KT 20/02 A2996 RMK A01 T01950022  RH  032%=      5-min Rain = 0
KDC1 240509Z 32002KT 19/02 A2996 RMK A01 T01940020  RH  031%=      5-min Rain = 0
KDC1 240510Z 32002KT 19/02 A2996 RMK A01 T01930021  RH  032%=      5-min Rain = 0
KDC1 240511Z 34002KT 19/02 A2996 RMK A01 T01930021  RH  032%=      5-min Rain = 0
KDC1 240512Z 02001KT 19/02 A2996 RMK A01 T01920021  RH  032%=      5-min Rain = 0
KDC1 240513Z 02001KT 19/03 A2996 RMK A01 T01910025  RH  033%=      5-min Rain = 0
KDC1 240514Z 00000KT 19/03 A2996 RMK A01 T01910031  RH  035%=      5-min Rain = 0
KDC1 240515Z 32000KT 19/02 A2996 RMK A01 T01910023  RH  033%=      5-min Rain = 0
KDC1 240516Z 31001KT 19/02 A2996 RMK A01 T01910021  RH  032%=      5-min Rain = 0
KDC1 240517Z 31000KT 19/03 A2996 RMK A01 T01920028  RH  034%=      5-min Rain = 0
KDC1 240518Z 35000KT 19/03 A2996 RMK A01 T01920029  RH  034%=      5-min Rain = 0
KDC1 240519Z 36001KT 19/03 A2996 RMK A01 T01920029  RH  034%=      5-min Rain = 0
KDC1 240520Z 34002KT 19/03 A2996 RMK A01 T01920028  RH  034%=      5-min Rain = 0
KDC1 240521Z 32003KT 19/02 A2996 RMK A01 T01940023  RH  032%=      5-min Rain = 0
KDC1 240522Z 31004KT 20/02 A2996 RMK A01 T01960020  RH  031%=      5-min Rain = 0
KDC1 240523Z 31005KT 20/02 A2996 RMK A01 T01970020  RH  031%=      5-min Rain = 0
KDC1 240524Z 31005KT 20/02 A2996 RMK A01 T01970021  RH  031%=      5-min Rain = 0
KDC1 240525Z 32004KT 20/02 A2996 RMK A01 T01970019  RH  031%=      5-min Rain = 0
KDC1 240526Z 32005KT 20/02 A2996 RMK A01 T01960017  RH  030%=      5-min Rain = 0
KDC1 240527Z 32005KT 20/02 A2996 RMK A01 T01960017  RH  030%=      5-min Rain = 0
KDC1 240528Z 31004KT 20/02 A2996 RMK A01 T01950017  RH  031%=      5-min Rain = 0
KDC1 240529Z 31004KT 19/02 A2996 RMK A01 T01930017  RH  031%=      5-min Rain = 0
KDC1 240530Z 31004KT 19/02 A2996 RMK A01 T01930016  RH  031%=      5-min Rain = 0
KDC1 240531Z 30004KT 19/01 A2996 RMK A01 T01930013  RH  030%=      5-min Rain = 0
KDC1 240532Z 29004KT 20/01 A2996 RMK A01 T01950010  RH  029%=      5-min Rain = 0
KDC1 240533Z 28002KT 20/01 A2996 RMK A01 T01980011  RH  029%=      5-min Rain = 0
KDC1 240534Z 26002KT 20/01 A2996 RMK A01 T02000013  RH  029%=      5-min Rain = 0
KDC1 240535Z 26001KT 20/02 A2996 RMK A01 T02000017  RH  030%=      5-min Rain = 0
KDC1 240536Z 25002KT 20/03 A2996 RMK A01 T01990033  RH  033%=      5-min Rain = 0
KDC1 240537Z 26002KT 20/02 A2996 RMK A01 T01960023  RH  032%=      5-min Rain = 0
KDC1 240538Z 27002KT 20/02 A2996 RMK A01 T01960017  RH  030%=      5-min Rain = 0
KDC1 240539Z 28003KT 20/02 A2996 RMK A01 T01960017  RH  030%=      5-min Rain = 0
KDC1 240540Z 27003KT 20/02 A2996 RMK A01 T01960021  RH  031%=      5-min Rain = 0
KDC1 240541Z 28004KT 20/03 A2996 RMK A01 T01970027  RH  032%=      5-min Rain = 0
KDC1 240542Z 29004KT 20/03 A2996 RMK A01 T01970030  RH  033%=      5-min Rain = 0
KDC1 240543Z 29004KT 20/03 A2996 RMK A01 T01970026  RH  032%=      5-min Rain = 0
KDC1 240544Z 30004KT 20/02 A2996 RMK A01 T01970023  RH  031%=      5-min Rain = 0
KDC1 240545Z 29005KT 20/02 A2996 RMK A01 T01980015  RH  030%=      5-min Rain = 0
KDC1 240546Z 29005KT 20/01 A2996 RMK A01 T01990011  RH  028%=      5-min Rain = 0
KDC1 240547Z 29006KT 20/01 A2996 RMK A01 T02000009  RH  028%=      5-min Rain = 0
KDC1 240548Z 29006KT 20/01 A2996 RMK A01 T02000010  RH  028%=      5-min Rain = 0
KDC1 240549Z 29005KT 20/01 A2996 RMK A01 T01980009  RH  028%=      5-min Rain = 0
KDC1 240550Z 29005KT 20/01 A2996 RMK A01 T01960008  RH  028%=      5-min Rain = 0
KDC1 240551Z 29006KT 19/01 A2996 RMK A01 T01940005  RH  028%=      5-min Rain = 0
KDC1 240552Z 29006KT 20/00 A2996 RMK A01 T01950003  RH  028%=      5-min Rain = 0
KDC1 240553Z 29006KT 19/00 A2996 RMK A01 T01940000  RH  027%=      5-min Rain = 0
KDC1 240554Z 29006KT 19/M00 A2996 RMK A01 T01941001  RH  027%=      5-min Rain = 0
KDC1 240555Z 29005KT 19/00 A2996 RMK A01 T019300-0  RH  027%=      5-min Rain = 0
KDC1 240556Z 29005KT 19/00 A2996 RMK A01 T01920000  RH  028%=      5-min Rain = 0
KDC1 240557Z 30004KT 19/00 A2996 RMK A01 T01910001  RH  028%=      5-min Rain = 0
KDC1 240558Z 30004KT 19/00 A2996 RMK A01 T01900002  RH  028%=      5-min Rain = 0
KDC1 240559Z 30004KT 19/01 A2996 RMK A01 T01900005  RH  029%=      5-min Rain = 0
KDC1 240600Z 30004KT 19/01 A2996 RMK A01 T01890005  RH  029%=      5-min Rain = 0
KDC1 240601Z 29004KT 19/01 A2996 RMK A01 T01880005  RH  029%=      5-min Rain = 0
KDC1 240602Z 29005KT 19/01 A2996 RMK A01 T01870005  RH  029%=      5-min Rain = 0
KDC1 240603Z 29005KT 19/01 A2996 RMK A01 T01860005  RH  030%=      5-min Rain = 0
KDC1 240604Z 29005KT 19/00 A2996 RMK A01 T01850004  RH  030%=      5-min Rain = 0
KDC1 240605Z 29005KT 18/01 A2996 RMK A01 T01840005  RH  030%=      5-min Rain = 0
KDC1 240606Z 29005KT 18/01 A2996 RMK A01 T01830005  RH  030%=      5-min Rain = 0
KDC1 240607Z 29005KT 18/01 A2996 RMK A01 T01820005  RH  030%=      5-min Rain = 0
KDC1 240608Z 29005KT 18/01 A2996 RMK A01 T01820005  RH  030%=      5-min Rain = 0
KDC1 240609Z 29005KT 18/00 A2996 RMK A01 T01820004  RH  030%=      5-min Rain = 0
KDC1 240610Z 29005KT 18/00 A2996 RMK A01 T01830003  RH  030%=      5-min Rain = 0
KDC1 240611Z 28005KT 18/00 A2996 RMK A01 T01830002  RH  029%=      5-min Rain = 0
KDC1 240612Z 29005KT 18/00 A2996 RMK A01 T018300-0  RH  029%=      5-min Rain = 0
KDC1 240613Z 28005KT 18/M00 A2996 RMK A01 T01831002  RH  029%=      5-min Rain = 0
KDC1 240614Z 29004KT 18/M00 A2996 RMK A01 T01831003  RH  028%=      5-min Rain = 0
KDC1 240615Z 29002KT 18/M00 A2996 RMK A01 T01831003  RH  028%=      5-min Rain = 0
KDC1 240616Z 29000KT 18/01 A2996 RMK A01 T01830006  RH  030%=      5-min Rain = 0
KDC1 240617Z 08001KT 18/02 A2996 RMK A01 T01820018  RH  033%=      5-min Rain = 0
KDC1 240618Z 12000KT 18/03 A2996 RMK A01 T01810028  RH  036%=      5-min Rain = 0
KDC1 240619Z 27001KT 18/03 A2996 RMK A01 T01800027  RH  036%=      5-min Rain = 0
KDC1 240620Z 27002KT 18/02 A2996 RMK A01 T01790022  RH  035%=      5-min Rain = 0
KDC1 240621Z 28002KT 18/02 A2995 RMK A01 T01780015  RH  033%=      5-min Rain = 0
KDC1 240622Z 29002KT 18/01 A2995 RMK A01 T01780010  RH  032%=      5-min Rain = 0
KDC1 240623Z 30002KT 18/01 A2995 RMK A01 T01780008  RH  032%=      5-min Rain = 0
KDC1 240624Z 32000KT 18/01 A2995 RMK A01 T01790009  RH  032%=      5-min Rain = 0
KDC1 240625Z 30001KT 18/01 A2995 RMK A01 T01800010  RH  032%=      5-min Rain = 0
KDC1 240626Z 30002KT 18/01 A2995 RMK A01 T01810011  RH  032%=      5-min Rain = 0
KDC1 240627Z 30002KT 18/01 A2995 RMK A01 T01820009  RH  031%=      5-min Rain = 0
KDC1 240628Z 30003KT 18/01 A2995 RMK A01 T01830007  RH  030%=      5-min Rain = 0
KDC1 240629Z 31002KT 18/01 A2995 RMK A01 T01840009  RH  031%=      5-min Rain = 0
KDC1 240630Z 30001KT 18/02 A2995 RMK A01 T01840021  RH  034%=      5-min Rain = 0
KDC1 240631Z 00000KT 18/03 A2995 RMK A01 T01830025  RH  035%=      5-min Rain = 0
KDC1 240632Z 27000KT 18/02 A2995 RMK A01 T01830023  RH  034%=      5-min Rain = 0
KDC1 240633Z 31002KT 18/01 A2995 RMK A01 T01830013  RH  032%=      5-min Rain = 0
KDC1 240634Z 31002KT 18/00 A2995 RMK A01 T01840000  RH  029%=      5-min Rain = 0
KDC1 240635Z 31002KT 19/00 A2995 RMK A01 T01860003  RH  029%=      5-min Rain = 0
KDC1 240636Z 33002KT 19/M00 A2995 RMK A01 T01881001  RH  028%=      5-min Rain = 0
KDC1 240637Z 34001KT 19/01 A2995 RMK A01 T01890007  RH  029%=      5-min Rain = 0
KDC1 240638Z 01001KT 19/02 A2995 RMK A01 T01880019  RH  032%=      5-min Rain = 0
KDC1 240639Z 36001KT 19/02 A2995 RMK A01 T01850018  RH  033%=      5-min Rain = 0
KDC1 240640Z 00001KT 18/02 A2995 RMK A01 T01830018  RH  033%=      5-min Rain = 0
KDC1 240641Z 34002KT 18/02 A2995 RMK A01 T01820021  RH  034%=      5-min Rain = 0
KDC1 240642Z 33002KT 18/02 A2995 RMK A01 T01820019  RH  034%=      5-min Rain = 0
KDC1 240643Z 32003KT 18/01 A2995 RMK A01 T01810014  RH  033%=      5-min Rain = 0
KDC1 240644Z 33003KT 18/01 A2995 RMK A01 T01810012  RH  032%=      5-min Rain = 0
KDC1 240645Z 33003KT 18/01 A2995 RMK A01 T01810012  RH  032%=      5-min Rain = 0
KDC1 240646Z 32002KT 18/02 A2995 RMK A01 T01810016  RH  033%=      5-min Rain = 0
KDC1 240647Z 33002KT 18/03 A2996 RMK A01 T01790034  RH  038%=      5-min Rain = 0
KDC1 240648Z 33002KT 18/02 A2995 RMK A01 T01770022  RH  035%=      5-min Rain = 0
KDC1 240649Z 32003KT 18/01 A2995 RMK A01 T01760012  RH  033%=      5-min Rain = 0
KDC1 240650Z 32004KT 18/01 A2995 RMK A01 T01770011  RH  033%=      5-min Rain = 0
KDC1 240651Z 32005KT 18/01 A2995 RMK A01 T01780010  RH  032%=      5-min Rain = 0
KDC1 240652Z 31005KT 18/01 A2995 RMK A01 T01800006  RH  031%=      5-min Rain = 0
KDC1 240653Z 31005KT 18/00 A2995 RMK A01 T01820003  RH  030%=      5-min Rain = 0
KDC1 240654Z 31005KT 18/00 A2995 RMK A01 T01840003  RH  029%=      5-min Rain = 0
KDC1 240655Z 32003KT 18/00 A2995 RMK A01 T01840000  RH  029%=      5-min Rain = 0
KDC1 240656Z 32003KT 19/M00 A2995 RMK A01 T01851001  RH  028%=      5-min Rain = 0
KDC1 240657Z 32003KT 19/M00 A2995 RMK A01 T01861002  RH  028%=      5-min Rain = 0
KDC1 240658Z 32004KT 19/00 A2995 RMK A01 T018600-0  RH  028%=      5-min Rain = 0
KDC1 240659Z 31004KT 19/00 A2995 RMK A01 T01860002  RH  029%=      5-min Rain = 0
KDC1 240700Z 32004KT 19/00 A2995 RMK A01 T01850004  RH  029%=      5-min Rain = 0
KDC1 240701Z 32003KT 18/01 A2995 RMK A01 T01840005  RH  030%=      5-min Rain = 0
KDC1 240702Z 32003KT 18/01 A2995 RMK A01 T01830006  RH  031%=      5-min Rain = 0
KDC1 240703Z 32002KT 18/01 A2995 RMK A01 T01820006  RH  031%=      5-min Rain = 0
KDC1 240704Z 36002KT 18/01 A2995 RMK A01 T01810006  RH  031%=      5-min Rain = 0
KDC1 240705Z 02001KT 18/01 A2995 RMK A01 T01800006  RH  031%=      5-min Rain = 0
KDC1 240706Z 02001KT 18/01 A2995 RMK A01 T01790007  RH  031%=      5-min Rain = 0
KDC1 240707Z 02001KT 18/01 A2995 RMK A01 T01790006  RH  031%=      5-min Rain = 0
KDC1 240708Z 01002KT 18/01 A2995 RMK A01 T01780007  RH  031%=      5-min Rain = 0
KDC1 240709Z 01003KT 18/01 A2995 RMK A01 T01780005  RH  031%=      5-min Rain = 0
KDC1 240710Z 36004KT 18/M01 A2995 RMK A01 T01791006  RH  028%=      5-min Rain = 0
KDC1 240711Z 35003KT 18/M01 A2995 RMK A01 T01811005  RH  028%=      5-min Rain = 0
KDC1 240712Z 34003KT 18/M01 A2995 RMK A01 T01821005  RH  028%=      5-min Rain = 0
KDC1 240713Z 34003KT 18/M00 A2995 RMK A01 T01831002  RH  029%=      5-min Rain = 0
KDC1 240714Z 32003KT 18/00 A2995 RMK A01 T01820000  RH  029%=      5-min Rain = 0
KDC1 240715Z 32004KT 18/M00 A2995 RMK A01 T01821001  RH  029%=      5-min Rain = 0
KDC1 240716Z 32003KT 18/M00 A2995 RMK A01 T01821003  RH  029%=      5-min Rain = 0
KDC1 240717Z 32004KT 18/M00 A2995 RMK A01 T01831004  RH  028%=      5-min Rain = 0
KDC1 240718Z 32004KT 18/M01 A2995 RMK A01 T01831006  RH  028%=      5-min Rain = 0
KDC1 240719Z 32004KT 18/M01 A2995 RMK A01 T01841006  RH  028%=      5-min Rain = 0
KDC1 240720Z 32004KT 18/M01 A2995 RMK A01 T01841005  RH  028%=      5-min Rain = 0
KDC1 240721Z 32004KT 18/M00 A2995 RMK A01 T01841003  RH  028%=      5-min Rain = 0
KDC1 240722Z 32004KT 18/M00 A2995 RMK A01 T01821001  RH  029%=      5-min Rain = 0
KDC1 240723Z 33004KT 18/01 A2995 RMK A01 T01790005  RH  031%=      5-min Rain = 0
KDC1 240724Z 32005KT 18/01 A2995 RMK A01 T01770011  RH  033%=      5-min Rain = 0
KDC1 240725Z 32006KT 18/01 A2995 RMK A01 T01750011  RH  033%=      5-min Rain = 0
KDC1 240726Z 33006KT 17/01 A2995 RMK A01 T01740008  RH  033%=      5-min Rain = 0
KDC1 240727Z 34006KT 17/01 A2995 RMK A01 T01740009  RH  033%=      5-min Rain = 0
KDC1 240728Z 34007KT 17/01 A2995 RMK A01 T01730010  RH  033%=      5-min Rain = 0
KDC1 240729Z 34008KT 17/01 A2995 RMK A01 T01730011  RH  034%=      5-min Rain = 0
KDC1 240730Z 34008KT 17/01 A2995 RMK A01 T01720012  RH  034%=      5-min Rain = 0
KDC1 240731Z 33009KT 17/01 A2995 RMK A01 T01710011  RH  034%=      5-min Rain = 0
KDC1 240732Z 33010KT 17/01 A2995 RMK A01 T01710011  RH  034%=      5-min Rain = 0
KDC1 240733Z 33009KT 17/01 A2995 RMK A01 T01720011  RH  034%=      5-min Rain = 0
KDC1 240734Z 33009KT 17/01 A2995 RMK A01 T01730010  RH  033%=      5-min Rain = 0
KDC1 240735Z 33009KT 17/01 A2995 RMK A01 T01740009  RH  033%=      5-min Rain = 0
KDC1 240736Z 33010KT 17/01 A2995 RMK A01 T01740010  RH  033%=      5-min Rain = 0
KDC1 240737Z 33010KT 17/01 A2995 RMK A01 T01740011  RH  033%=      5-min Rain = 0
KDC1 240738Z 33009KT 18/01 A2995 RMK A01 T01750011  RH  033%=      5-min Rain = 0
KDC1 240739Z 34009KT 18/01 A2995 RMK A01 T01750011  RH  033%=      5-min Rain = 0
KDC1 240740Z 34009KT 18/01 A2995 RMK A01 T01750012  RH  033%=      5-min Rain = 0
KDC1 240741Z 34009KT 18/01 A2995 RMK A01 T01750013  RH  034%=      5-min Rain = 0
KDC1 240742Z 33009KT 18/01 A2995 RMK A01 T01750013  RH  034%=      5-min Rain = 0
KDC1 240743Z 34009KT 17/01 A2995 RMK A01 T01740012  RH  034%=      5-min Rain = 0
KDC1 240744Z 34008KT 17/01 A2995 RMK A01 T01740011  RH  033%=      5-min Rain = 0
KDC1 240745Z 32009KT 17/01 A2995 RMK A01 T01740010  RH  033%=      5-min Rain = 0
KDC1 240746Z 33008KT 17/01 A2995 RMK A01 T01740010  RH  033%=      5-min Rain = 0
KDC1 240747Z 34008KT 18/00 A2995 RMK A01 T01750003  RH  031%=      5-min Rain = 0
KDC1 240748Z 33008KT 18/00 A2995 RMK A01 T01770001  RH  030%=      5-min Rain = 0
KDC1 240749Z 34008KT 18/00 A2995 RMK A01 T01780002  RH  030%=      5-min Rain = 0
KDC1 240750Z 33008KT 18/00 A2995 RMK A01 T01790001  RH  030%=      5-min Rain = 0
KDC1 240751Z 33008KT 18/00 A2995 RMK A01 T01790003  RH  031%=      5-min Rain = 0
KDC1 240752Z 34008KT 18/01 A2995 RMK A01 T01780006  RH  031%=      5-min Rain = 0
KDC1 240753Z 34008KT 18/01 A2995 RMK A01 T01760005  RH  032%=      5-min Rain = 0
KDC1 240754Z 34008KT 18/01 A2995 RMK A01 T01760007  RH  032%=      5-min Rain = 0
KDC1 240755Z 34008KT 18/01 A2995 RMK A01 T01750007  RH  032%=      5-min Rain = 0
KDC1 240756Z 34007KT 17/00 A2995 RMK A01 T01740004  RH  032%=      5-min Rain = 0
KDC1 240757Z 34008KT 17/00 A2995 RMK A01 T01740002  RH  031%=      5-min Rain = 0
KDC1 240758Z 34007KT 17/00 A2995 RMK A01 T01740000  RH  031%=      5-min Rain = 0
KDC1 240759Z 34007KT 17/M01 A2995 RMK A01 T01741005  RH  030%=      5-min Rain = 0
KDC1 240800Z 34007KT 18/M01 A2995 RMK A01 T01761006  RH  029%=      5-min Rain = 0
KDC1 240801Z 35006KT 18/M01 A2995 RMK A01 T01771007  RH  029%=      5-min Rain = 0
KDC1 240802Z 07005KT 18/M00 A2995 RMK A01 T01781004  RH  029%=      5-min Rain = 0
KDC1 240803Z 09004KT 18/02 A2995 RMK A01 T01760017  RH  034%=      5-min Rain = 0
KDC1 240804Z 06005KT 17/02 A2995 RMK A01 T01720021  RH  036%=      5-min Rain = 0
KDC1 240805Z 01006KT 17/M00 A2995 RMK A01 T01721001  RH  031%=      5-min Rain = 0
KDC1 240806Z 05005KT 18/M00 A2995 RMK A01 T01781003  RH  029%=      5-min Rain = 0
KDC1 240807Z 05006KT 18/01 A2995 RMK A01 T01790009  RH  032%=      5-min Rain = 0
KDC1 240808Z 04006KT 18/01 A2995 RMK A01 T01780005  RH  031%=      5-min Rain = 0
KDC1 240809Z 03006KT 18/00 A2995 RMK A01 T01770000  RH  030%=      5-min Rain = 0
KDC1 240810Z 03005KT 18/M00 A2995 RMK A01 T01771002  RH  030%=      5-min Rain = 0
KDC1 240811Z 04006KT 18/M00 A2995 RMK A01 T01771003  RH  030%=      5-min Rain = 0
KDC1 240812Z 06005KT 18/M00 A2995 RMK A01 T01761004  RH  029%=      5-min Rain = 0
KDC1 240813Z 07006KT 18/M01 A2995 RMK A01 T01751006  RH  029%=      5-min Rain = 0
KDC1 240814Z 06006KT 17/M00 A2995 RMK A01 T01741001  RH  031%=      5-min Rain = 0
KDC1 240815Z 03006KT 17/M00 A2995 RMK A01 T01741001  RH  031%=      5-min Rain = 0
KDC1 240816Z 01007KT 17/M01 A2995 RMK A01 T01731009  RH  029%=      5-min Rain = 0
KDC1 240817Z 00007KT 18/M01 A2995 RMK A01 T01751013  RH  028%=      5-min Rain = 0
KDC1 240818Z 00007KT 18/M01 A2995 RMK A01 T01771014  RH  027%=      5-min Rain = 0
KDC1 240819Z 01007KT 18/M02 A2995 RMK A01 T01791018  RH  026%=      5-min Rain = 0
KDC1 240820Z 02007KT 18/M02 A2995 RMK A01 T01821018  RH  026%=      5-min Rain = 0
KDC1 240821Z 02007KT 18/M02 A2995 RMK A01 T01831018  RH  025%=      5-min Rain = 0
KDC1 240822Z 02006KT 18/M02 A2995 RMK A01 T01841017  RH  025%=      5-min Rain = 0
KDC1 240823Z 01006KT 18/M02 A2995 RMK A01 T01841017  RH  026%=      5-min Rain = 0
KDC1 240824Z 00007KT 18/M02 A2995 RMK A01 T01841016  RH  026%=      5-min Rain = 0
KDC1 240825Z 36007KT 18/M02 A2995 RMK A01 T01841015  RH  026%=      5-min Rain = 0
KDC1 240826Z 00007KT 18/M02 A2995 RMK A01 T01841016  RH  026%=      5-min Rain = 0
KDC1 240827Z 00007KT 18/M02 A2995 RMK A01 T01841016  RH  026%=      5-min Rain = 0
KDC1 240828Z 01006KT 18/M02 A2995 RMK A01 T01841015  RH  026%=      5-min Rain = 0
KDC1 240829Z 02004KT 18/M01 A2995 RMK A01 T01831013  RH  026%=      5-min Rain = 0
KDC1 240830Z 04004KT 18/M01 A2995 RMK A01 T01831010  RH  027%=      5-min Rain = 0
KDC1 240831Z 03005KT 18/M01 A2995 RMK A01 T01811007  RH  028%=      5-min Rain = 0
KDC1 240832Z 01006KT 18/M01 A2995 RMK A01 T01801006  RH  028%=      5-min Rain = 0
KDC1 240833Z 02007KT 18/M01 A2995 RMK A01 T01791007  RH  028%=      5-min Rain = 0
KDC1 240834Z 02006KT 18/M01 A2995 RMK A01 T01781008  RH  028%=      5-min Rain = 0
KDC1 240835Z 03006KT 18/M01 A2995 RMK A01 T01781010  RH  028%=      5-min Rain = 0
KDC1 240836Z 03005KT 18/M01 A2995 RMK A01 T01781011  RH  028%=      5-min Rain = 0
KDC1 240837Z 03004KT 18/M01 A2995 RMK A01 T01791011  RH  028%=      5-min Rain = 0
KDC1 240838Z 03005KT 18/M01 A2995 RMK A01 T01791012  RH  027%=      5-min Rain = 0
KDC1 240839Z 03004KT 18/M01 A2995 RMK A01 T01791013  RH  027%=      5-min Rain = 0
KDC1 240840Z 03003KT 18/M01 A2995 RMK A01 T01791014  RH  027%=      5-min Rain = 0
KDC1 240841Z 02004KT 18/M01 A2995 RMK A01 T01791014  RH  027%=      5-min Rain = 0
KDC1 240842Z 01005KT 18/M01 A2995 RMK A01 T01791014  RH  027%=      5-min Rain = 0
KDC1 240843Z 01005KT 18/M01 A2995 RMK A01 T01791014  RH  027%=      5-min Rain = 0
KDC1 240844Z 01006KT 18/M01 A2995 RMK A01 T01781014  RH  027%=      5-min Rain = 0
KDC1 240845Z 01005KT 18/M01 A2995 RMK A01 T01781014  RH  027%=      5-min Rain = 0
KDC1 240846Z 01005KT 18/M01 A2995 RMK A01 T01771013  RH  027%=      5-min Rain = 0
KDC1 240847Z 00005KT 18/M01 A2995 RMK A01 T01761013  RH  028%=      5-min Rain = 0
KDC1 240848Z 36005KT 18/M01 A2995 RMK A01 T01751013  RH  028%=      5-min Rain = 0
KDC1 240849Z 36004KT 17/M01 A2995 RMK A01 T01741014  RH  028%=      5-min Rain = 0
KDC1 240850Z 34003KT 17/M01 A2995 RMK A01 T01741013  RH  028%=      5-min Rain = 0
KDC1 240851Z 33003KT 17/M01 A2995 RMK A01 T01721006  RH  030%=      5-min Rain = 0
KDC1 240852Z 33004KT 17/00 A2995 RMK A01 T016800-0  RH  032%=      5-min Rain = 0
KDC1 240853Z 32004KT 17/00 A2995 RMK A01 T01650000  RH  033%=      5-min Rain = 0
KDC1 240854Z 30003KT 16/00 A2995 RMK A01 T01620001  RH  033%=      5-min Rain = 0
KDC1 240855Z 30003KT 16/00 A2995 RMK A01 T01610003  RH  034%=      5-min Rain = 0
KDC1 240856Z 30002KT 16/00 A2995 RMK A01 T01610003  RH  034%=      5-min Rain = 0
KDC1 240857Z 30002KT 16/00 A2995 RMK A01 T016200-0  RH  033%=      5-min Rain = 0
KDC1 240858Z 32002KT 16/00 A2995 RMK A01 T016300-0  RH  033%=      5-min Rain = 0
KDC1 240859Z 33002KT 16/00 A2995 RMK A01 T01640001  RH  033%=      5-min Rain = 0
KDC1 240900Z 33003KT 16/00 A2995 RMK A01 T01640000  RH  033%=      5-min Rain = 0
KDC1 240901Z 32003KT 17/00 A2995 RMK A01 T01650000  RH  033%=      5-min Rain = 0
KDC1 240902Z 32003KT 17/00 A2995 RMK A01 T01650004  RH  033%=      5-min Rain = 0
KDC1 240903Z 32003KT 16/01 A2995 RMK A01 T01640008  RH  035%=      5-min Rain = 0
KDC1 240904Z 33003KT 16/01 A2995 RMK A01 T01620008  RH  035%=      5-min Rain = 0
KDC1 240905Z 33003KT 16/01 A2995 RMK A01 T01610010  RH  036%=      5-min Rain = 0
KDC1 240906Z 33002KT 16/01 A2996 RMK A01 T01600005  RH  035%=      5-min Rain = 0
KDC1 240907Z 33002KT 16/00 A2996 RMK A01 T01590002  RH  034%=      5-min Rain = 0
KDC1 240908Z 32002KT 16/M00 A2996 RMK A01 T01601002  RH  033%=      5-min Rain = 0
KDC1 240909Z 33002KT 16/M01 A2996 RMK A01 T01611009  RH  031%=      5-min Rain = 0
KDC1 240910Z 33003KT 16/M01 A2996 RMK A01 T01641009  RH  031%=      5-min Rain = 0
KDC1 240911Z 34003KT 17/M01 A2996 RMK A01 T01661009  RH  030%=      5-min Rain = 0
KDC1 240912Z 33002KT 17/M01 A2996 RMK A01 T01671009  RH  030%=      5-min Rain = 0
KDC1 240913Z 16003KT 17/02 A2996 RMK A01 T01660016  RH  037%=      5-min Rain = 0
KDC1 240914Z 18003KT 16/03 A2996 RMK A01 T01570028  RH  042%=      5-min Rain = 0
KDC1 240915Z 25002KT 16/02 A2996 RMK A01 T01550017  RH  039%=      5-min Rain = 0
KDC1 240916Z 24002KT 16/02 A2996 RMK A01 T01550017  RH  039%=      5-min Rain = 0
KDC1 240917Z 13001KT 16/02 A2996 RMK A01 T01550022  RH  041%=      5-min Rain = 0
KDC1 240918Z 08000KT 15/02 A2996 RMK A01 T01520023  RH  042%=      5-min Rain = 0
KDC1 240919Z 30000KT 15/03 A2996 RMK A01 T01510025  RH  043%=      5-min Rain = 0
KDC1 240920Z 29001KT 15/02 A2996 RMK A01 T01500024  RH  043%=      5-min Rain = 0
KDC1 240921Z 27000KT 15/02 A2996 RMK A01 T01490016  RH  040%=      5-min Rain = 0
KDC1 240922Z 09001KT 15/02 A2997 RMK A01 T01490019  RH  041%=      5-min Rain = 0
KDC1 240923Z 04002KT 15/02 A2996 RMK A01 T01500022  RH  042%=      5-min Rain = 0
KDC1 240924Z 35002KT 15/02 A2996 RMK A01 T01500018  RH  041%=      5-min Rain = 0
KDC1 240925Z 34001KT 15/02 A2996 RMK A01 T01500015  RH  040%=      5-min Rain = 0
KDC1 240926Z 34002KT 15/01 A2996 RMK A01 T01510012  RH  039%=      5-min Rain = 0
KDC1 240927Z 01002KT 15/01 A2996 RMK A01 T01510011  RH  039%=      5-min Rain = 0
KDC1 240928Z 04001KT 15/01 A2997 RMK A01 T01490011  RH  039%=      5-min Rain = 0
KDC1 240929Z 04001KT 15/01 A2997 RMK A01 T01480011  RH  039%=      5-min Rain = 0
KDC1 240930Z 32002KT 15/01 A2996 RMK A01 T01480011  RH  039%=      5-min Rain = 0
KDC1 240931Z 31003KT 15/01 A2996 RMK A01 T01480011  RH  039%=      5-min Rain = 0
KDC1 240932Z 32002KT 15/01 A2997 RMK A01 T01470011  RH  040%=      5-min Rain = 0
KDC1 240933Z 33002KT 15/01 A2997 RMK A01 T01470010  RH  039%=      5-min Rain = 0
KDC1 240934Z 32003KT 15/01 A2997 RMK A01 T01450010  RH  040%=      5-min Rain = 0
KDC1 240935Z 31003KT 15/01 A2996 RMK A01 T01450013  RH  041%=      5-min Rain = 0
KDC1 240936Z 32003KT 15/02 A2996 RMK A01 T01450015  RH  041%=      5-min Rain = 0
KDC1 240937Z 31003KT 15/02 A2997 RMK A01 T01460016  RH  041%=      5-min Rain = 0
KDC1 240938Z 31003KT 15/02 A2997 RMK A01 T01470016  RH  041%=      5-min Rain = 0
KDC1 240939Z 32004KT 15/01 A2997 RMK A01 T01480014  RH  040%=      5-min Rain = 0
KDC1 240940Z 32004KT 15/02 A2997 RMK A01 T01480016  RH  041%=      5-min Rain = 0
KDC1 240941Z 32005KT 15/02 A2997 RMK A01 T01480016  RH  041%=      5-min Rain = 0
KDC1 240942Z 33006KT 15/01 A2997 RMK A01 T01490012  RH  039%=      5-min Rain = 0
KDC1 240943Z 34007KT 15/00 A2997 RMK A01 T01500003  RH  037%=      5-min Rain = 0
KDC1 240944Z 35011KT 15/M00 A2998 RMK A01 T01531001  RH  035%=      5-min Rain = 0
KDC1 240945Z 00011KT 16/M00 A2998 RMK A01 T01551004  RH  034%=      5-min Rain = 0
KDC1 240946Z 01008KT 16/00 A2998 RMK A01 T01570003  RH  035%=      5-min Rain = 0
KDC1 240947Z 01005KT 16/01 A2997 RMK A01 T01580010  RH  037%=      5-min Rain = 0
KDC1 240948Z 00004KT 16/01 A2997 RMK A01 T01590012  RH  037%=      5-min Rain = 0
KDC1 240949Z 00004KT 16/01 A2997 RMK A01 T01600012  RH  037%=      5-min Rain = 0
KDC1 240950Z 00005KT 16/01 A2998 RMK A01 T01600014  RH  037%=      5-min Rain = 0
KDC1 240951Z 01005KT 16/02 A2998 RMK A01 T01600017  RH  038%=      5-min Rain = 0
KDC1 240952Z 36005KT 16/02 A2997 RMK A01 T01590018  RH  039%=      5-min Rain = 0
KDC1 240953Z 33004KT 16/02 A2997 RMK A01 T01580017  RH  038%=      5-min Rain = 0
KDC1 240954Z 32004KT 16/02 A2997 RMK A01 T01570017  RH  039%=      5-min Rain = 0
KDC1 240955Z 33004KT 15/02 A2997 RMK A01 T01530022  RH  041%=      5-min Rain = 0
KDC1 240956Z 32005KT 15/02 A2997 RMK A01 T01490024  RH  043%=      5-min Rain = 0
KDC1 240957Z 32005KT 15/03 A2998 RMK A01 T01460025  RH  044%=      5-min Rain = 0
KDC1 240958Z 32005KT 14/03 A2998 RMK A01 T01440025  RH  045%=      5-min Rain = 0
KDC1 240959Z 32006KT 14/02 A2997 RMK A01 T01430024  RH  045%=      5-min Rain = 0
KDC1 241000Z 32006KT 14/02 A2997 RMK A01 T01430024  RH  045%=      5-min Rain = 0
KDC1 241001Z 32007KT 14/02 A2997 RMK A01 T01430024  RH  045%=      5-min Rain = 0
KDC1 241002Z 32006KT 14/02 A2998 RMK A01 T01420023  RH  045%=      5-min Rain = 0
KDC1 241003Z 30005KT 14/02 A2998 RMK A01 T01410023  RH  045%=      5-min Rain = 0
KDC1 241004Z 29005KT 14/02 A2998 RMK A01 T01400024  RH  045%=      5-min Rain = 0
KDC1 241005Z 29006KT 14/02 A2998 RMK A01 T01390024  RH  046%=      5-min Rain = 0
KDC1 241006Z 29006KT 14/02 A2998 RMK A01 T01400022  RH  045%=      5-min Rain = 0
KDC1 241007Z 29007KT 14/02 A2998 RMK A01 T01400017  RH  043%=      5-min Rain = 0
KDC1 241008Z 29007KT 14/01 A2998 RMK A01 T01400014  RH  042%=      5-min Rain = 0
KDC1 241009Z 28007KT 14/01 A2998 RMK A01 T01400010  RH  041%=      5-min Rain = 0
KDC1 241010Z 28008KT 14/01 A2998 RMK A01 T01400007  RH  040%=      5-min Rain = 0
KDC1 241011Z 28008KT 14/00 A2998 RMK A01 T01400003  RH  039%=      5-min Rain = 0
KDC1 241012Z 29009KT 14/00 A2998 RMK A01 T01410000  RH  038%=      5-min Rain = 0
KDC1 241013Z 29010KT 14/M01 A2998 RMK A01 T01421005  RH  036%=      5-min Rain = 0
KDC1 241014Z 29010KT 15/M01 A2998 RMK A01 T01461011  RH  034%=      5-min Rain = 0
KDC1 241015Z 29010KT 15/M02 A2998 RMK A01 T01501015  RH  032%=      5-min Rain = 0
KDC1 241016Z 29010KT 15/M02 A2998 RMK A01 T01521017  RH  031%=      5-min Rain = 0
KDC1 241017Z 30009KT 15/M02 A2998 RMK A01 T01531017  RH  031%=      5-min Rain = 0
KDC1 241018Z 30009KT 15/M02 A2998 RMK A01 T01541018  RH  031%=      5-min Rain = 0
KDC1 241019Z 30008KT 15/M02 A2998 RMK A01 T01541019  RH  030%=      5-min Rain = 0
KDC1 241020Z 31008KT 15/M02 A2998 RMK A01 T01541019  RH  030%=      5-min Rain = 0
KDC1 241021Z 31008KT 16/M02 A2998 RMK A01 T01551019  RH  030%=      5-min Rain = 0
KDC1 241022Z 31007KT 16/M02 A2998 RMK A01 T01551018  RH  030%=      5-min Rain = 0
KDC1 241023Z 31007KT 16/M02 A2998 RMK A01 T01551017  RH  031%=      5-min Rain = 0
KDC1 241024Z 31007KT 15/M02 A2998 RMK A01 T01541015  RH  031%=      5-min Rain = 0
KDC1 241025Z 31007KT 15/M01 A2998 RMK A01 T01531014  RH  032%=      5-min Rain = 0
KDC1 241026Z 31006KT 15/M01 A2998 RMK A01 T01521012  RH  032%=      5-min Rain = 0
KDC1 241027Z 31006KT 15/M01 A2998 RMK A01 T01511012  RH  033%=      5-min Rain = 0
KDC1 241028Z 31007KT 15/M01 A2998 RMK A01 T01501011  RH  033%=      5-min Rain = 0
KDC1 241029Z 31007KT 15/M01 A2998 RMK A01 T01481010  RH  034%=      5-min Rain = 0
KDC1 241030Z 31006KT 15/M01 A2998 RMK A01 T01481009  RH  034%=      5-min Rain = 0
KDC1 241031Z 31006KT 15/M01 A2998 RMK A01 T01461008  RH  035%=      5-min Rain = 0
KDC1 241032Z 31006KT 15/M01 A2998 RMK A01 T01451008  RH  035%=      5-min Rain = 0
KDC1 241033Z 30006KT 14/M01 A2998 RMK A01 T01441008  RH  035%=      5-min Rain = 0
KDC1 241034Z 31007KT 14/M01 A2998 RMK A01 T01441009  RH  035%=      5-min Rain = 0
KDC1 241035Z 31007KT 14/M01 A2998 RMK A01 T01441010  RH  035%=      5-min Rain = 0
KDC1 241036Z 31007KT 14/M01 A2998 RMK A01 T01441010  RH  035%=      5-min Rain = 0
KDC1 241037Z 31008KT 15/M01 A2998 RMK A01 T01451011  RH  034%=      5-min Rain = 0
KDC1 241038Z 32008KT 15/M01 A2998 RMK A01 T01451012  RH  034%=      5-min Rain = 0
KDC1 241039Z 33009KT 15/M01 A2998 RMK A01 T01471012  RH  034%=      5-min Rain = 0
KDC1 241040Z 33009KT 15/M01 A2998 RMK A01 T01481011  RH  033%=      5-min Rain = 0
KDC1 241041Z 33009KT 15/M01 A2998 RMK A01 T01501010  RH  033%=      5-min Rain = 0
KDC1 241042Z 33009KT 15/M01 A2998 RMK A01 T01511009  RH  034%=      5-min Rain = 0
KDC1 241043Z 33009KT 15/M01 A2998 RMK A01 T01511007  RH  034%=      5-min Rain = 0
KDC1 241044Z 33009KT 15/M01 A2998 RMK A01 T01521006  RH  034%=      5-min Rain = 0
KDC1 241045Z 33009KT 15/M01 A2998 RMK A01 T01541006  RH  033%=      5-min Rain = 0
KDC1 241046Z 34009KT 16/M01 A2998 RMK A01 T01551006  RH  033%=      5-min Rain = 0
KDC1 241047Z 34009KT 16/M01 A2998 RMK A01 T01571006  RH  033%=      5-min Rain = 0
KDC1 241048Z 34008KT 16/M01 A2998 RMK A01 T01581007  RH  032%=      5-min Rain = 0
KDC1 241049Z 34008KT 16/M01 A2998 RMK A01 T01591007  RH  032%=      5-min Rain = 0
KDC1 241050Z 34008KT 16/M01 A2998 RMK A01 T01601007  RH  032%=      5-min Rain = 0
KDC1 241051Z 34007KT 16/M01 A2998 RMK A01 T01601008  RH  032%=      5-min Rain = 0
KDC1 241052Z 34007KT 16/M01 A2998 RMK A01 T01601008  RH  032%=      5-min Rain = 0
KDC1 241053Z 33007KT 16/M01 A2998 RMK A01 T01601007  RH  032%=      5-min Rain = 0
KDC1 241054Z 33007KT 16/M01 A2998 RMK A01 T01601006  RH  032%=      5-min Rain = 0
KDC1 241055Z 33007KT 16/M01 A2998 RMK A01 T01591005  RH  033%=      5-min Rain = 0
KDC1 241056Z 33008KT 16/M00 A2998 RMK A01 T01571004  RH  033%=      5-min Rain = 0
KDC1 241057Z 33008KT 16/M00 A2998 RMK A01 T01561003  RH  034%=      5-min Rain = 0
KDC1 241058Z 34008KT 16/M00 A2998 RMK A01 T01551003  RH  034%=      5-min Rain = 0
KDC1 241059Z 34007KT 16/M01 A2998 RMK A01 T01551005  RH  033%=      5-min Rain = 0
KDC1 241100Z 34007KT 16/M01 A2998 RMK A01 T01551005  RH  033%=      5-min Rain = 0
KDC1 241101Z 34008KT 16/M01 A2998 RMK A01 T01551005  RH  033%=      5-min Rain = 0
KDC1 241102Z 33007KT 16/M01 A2998 RMK A01 T01551005  RH  033%=      5-min Rain = 0
KDC1 241103Z 33007KT 15/M01 A2998 RMK A01 T01541006  RH  033%=      5-min Rain = 0
KDC1 241104Z 32006KT 15/M01 A2998 RMK A01 T01531006  RH  034%=      5-min Rain = 0
KDC1 241105Z 32006KT 15/M01 A2998 RMK A01 T01521005  RH  034%=      5-min Rain = 0
KDC1 241106Z 32006KT 15/M00 A2998 RMK A01 T01501002  RH  035%=      5-min Rain = 0
KDC1 241107Z 32006KT 15/M00 A2998 RMK A01 T01481001  RH  036%=      5-min Rain = 0
KDC1 241108Z 31006KT 15/00 A2998 RMK A01 T014700-0  RH  037%=      5-min Rain = 0
KDC1 241109Z 32007KT 15/M00 A2998 RMK A01 T01451001  RH  037%=      5-min Rain = 0
KDC1 241110Z 32007KT 14/M00 A2998 RMK A01 T01441002  RH  037%=      5-min Rain = 0
KDC1 241111Z 32008KT 14/M00 A2998 RMK A01 T01431003  RH  037%=      5-min Rain = 0
KDC1 241112Z 32008KT 14/M00 A2998 RMK A01 T01431003  RH  037%=      5-min Rain = 0
KDC1 241113Z 32008KT 14/M00 A2998 RMK A01 T01441003  RH  036%=      5-min Rain = 0
KDC1 241114Z 32008KT 15/M01 A2998 RMK A01 T01451006  RH  035%=      5-min Rain = 0
KDC1 241115Z 32008KT 15/M01 A2998 RMK A01 T01461008  RH  035%=      5-min Rain = 0
KDC1 241116Z 32008KT 15/M01 A2998 RMK A01 T01471009  RH  034%=      5-min Rain = 0
KDC1 241117Z 32008KT 15/M01 A2998 RMK A01 T01481009  RH  034%=      5-min Rain = 0
KDC1 241118Z 32008KT 15/M01 A2998 RMK A01 T01481009  RH  034%=      5-min Rain = 0
KDC1 241119Z 31008KT 15/M01 A2998 RMK A01 T01491011  RH  033%=      5-min Rain = 0
KDC1 241120Z 31008KT 15/M01 A2998 RMK A01 T01481012  RH  033%=      5-min Rain = 0
KDC1 241121Z 30008KT 15/M01 A2998 RMK A01 T01471013  RH  033%=      5-min Rain = 0
KDC1 241122Z 30008KT 15/M02 A2998 RMK A01 T01471016  RH  033%=      5-min Rain = 0
KDC1 241123Z 30009KT 15/M02 A2998 RMK A01 T01471019  RH  032%=      5-min Rain = 0
KDC1 241124Z 31009KT 15/M02 A2998 RMK A01 T01481023  RH  031%=      5-min Rain = 0
KDC1 241125Z 30009KT 15/M03 A2998 RMK A01 T01491025  RH  030%=      5-min Rain = 0
KDC1 241126Z 30009KT 15/M03 A2998 RMK A01 T01501027  RH  030%=      5-min Rain = 0
KDC1 241127Z 30009KT 15/M03 A2998 RMK A01 T01491029  RH  029%=      5-min Rain = 0
KDC1 241128Z 29008KT 15/M03 A2998 RMK A01 T01491030  RH  029%=      5-min Rain = 0
KDC1 241129Z 29008KT 15/M03 A2998 RMK A01 T01501029  RH  029%=      5-min Rain = 0
KDC1 241130Z 29008KT 15/M03 A2998 RMK A01 T01491028  RH  029%=      5-min Rain = 0
KDC1 241131Z 29008KT 15/M03 A2998 RMK A01 T01491027  RH  030%=      5-min Rain = 0
KDC1 241132Z 29009KT 15/M03 A2998 RMK A01 T01481027  RH  030%=      5-min Rain = 0
KDC1 241133Z 29009KT 15/M03 A2998 RMK A01 T01481027  RH  030%=      5-min Rain = 0
KDC1 241134Z 29009KT 15/M03 A2998 RMK A01 T01481025  RH  030%=      5-min Rain = 0
KDC1 241135Z 29010KT 15/M02 A2999 RMK A01 T01471024  RH  031%=      5-min Rain = 0
KDC1 241136Z 29009KT 15/M02 A2999 RMK A01 T01471023  RH  031%=      5-min Rain = 0
KDC1 241137Z 29009KT 15/M02 A2999 RMK A01 T01461022  RH  031%=      5-min Rain = 0
KDC1 241138Z 29009KT 15/M02 A2999 RMK A01 T01451020  RH  032%=      5-min Rain = 0
KDC1 241139Z 29009KT 14/M02 A2999 RMK A01 T01441019  RH  033%=      5-min Rain = 0
KDC1 241140Z 29009KT 14/M02 A2999 RMK A01 T01431019  RH  033%=      5-min Rain = 0
KDC1 241141Z 29008KT 14/M02 A2999 RMK A01 T01431020  RH  032%=      5-min Rain = 0
KDC1 241142Z 29008KT 14/M02 A2999 RMK A01 T01431020  RH  032%=      5-min Rain = 0
KDC1 241143Z 29008KT 14/M02 A2999 RMK A01 T01431019  RH  033%=      5-min Rain = 0
KDC1 241144Z 29007KT 14/M02 A2999 RMK A01 T01431018  RH  033%=      5-min Rain = 0
KDC1 241145Z 29008KT 14/M02 A2999 RMK A01 T01431017  RH  033%=      5-min Rain = 0
KDC1 241146Z 29007KT 14/M02 A2999 RMK A01 T01431017  RH  033%=      5-min Rain = 0
KDC1 241147Z 29007KT 14/M02 A2999 RMK A01 T01421016  RH  033%=      5-min Rain = 0
KDC1 241148Z 29007KT 14/M02 A2999 RMK A01 T01431016  RH  033%=      5-min Rain = 0
KDC1 241149Z 29007KT 14/M02 A2999 RMK A01 T01421016  RH  033%=      5-min Rain = 0
KDC1 241150Z 29007KT 14/M02 A2999 RMK A01 T01421017  RH  033%=      5-min Rain = 0
KDC1 241151Z 29007KT 14/M02 A2999 RMK A01 T01431017  RH  033%=      5-min Rain = 0
KDC1 241152Z 30007KT 14/M02 A2999 RMK A01 T01431017  RH  033%=      5-min Rain = 0
KDC1 241153Z 30009KT 14/M01 A2999 RMK A01 T01431014  RH  034%=      5-min Rain = 0
KDC1 241154Z 30009KT 14/M01 A2999 RMK A01 T01431013  RH  034%=      5-min Rain = 0
KDC1 241155Z 30010KT 14/M01 A2999 RMK A01 T01441012  RH  034%=      5-min Rain = 0
KDC1 241156Z 30010KT 15/M01 A2999 RMK A01 T01451012  RH  034%=      5-min Rain = 0
KDC1 241157Z 30010KT 15/M01 A2999 RMK A01 T01461012  RH  034%=      5-min Rain = 0
KDC1 241158Z 30010KT 15/M01 A2999 RMK A01 T01471013  RH  033%=      5-min Rain = 0
KDC1 241159Z 30010KT 15/M01 A2999 RMK A01 T01481013  RH  033%=      5-min Rain = 0
KDC1 241200Z 30009KT 15/M01 A2999 RMK A01 T01491014  RH  033%=      5-min Rain = 0
KDC1 241201Z 30008KT 15/M01 A2999 RMK A01 T01491014  RH  033%=      5-min Rain = 0
KDC1 241202Z 30008KT 15/M01 A30 RMK A01 T01491012  RH  033%=      5-min Rain = 0
KDC1 241203Z 30009KT 15/M01 A30 RMK A01 T01481010  RH  034%=      5-min Rain = 0
KDC1 241204Z 30010KT 15/M01 A30 RMK A01 T01471011  RH  034%=      5-min Rain = 0
KDC1 241205Z 30010KT 15/M01 A30 RMK A01 T01481011  RH  033%=      5-min Rain = 0
KDC1 241206Z 30009KT 15/M01 A30 RMK A01 T01491012  RH  033%=      5-min Rain = 0
KDC1 241207Z 30008KT 15/M01 A30 RMK A01 T01491012  RH  033%=      5-min Rain = 0
KDC1 241208Z 30008KT 15/M01 A30 RMK A01 T01501012  RH  033%=      5-min Rain = 0
KDC1 241209Z 30008KT 15/M01 A30 RMK A01 T01501011  RH  033%=      5-min Rain = 0
KDC1 241210Z 31008KT 15/M01 A30 RMK A01 T01501011  RH  033%=      5-min Rain = 0
KDC1 241211Z 31008KT 15/M01 A30 RMK A01 T01501011  RH  033%=      5-min Rain = 0
KDC1 241212Z 31008KT 15/M01 A30 RMK A01 T01501011  RH  033%=      5-min Rain = 0
KDC1 241213Z 31008KT 15/M01 A30 RMK A01 T01511009  RH  033%=      5-min Rain = 0
KDC1 241214Z 32008KT 15/M01 A30 RMK A01 T01501009  RH  034%=      5-min Rain = 0
KDC1 241215Z 32008KT 15/M01 A30 RMK A01 T01511009  RH  033%=      5-min Rain = 0
KDC1 241216Z 32008KT 15/M01 A30 RMK A01 T01521008  RH  034%=      5-min Rain = 0
KDC1 241217Z 33008KT 15/M01 A30 RMK A01 T01521008  RH  033%=      5-min Rain = 0
KDC1 241218Z 33008KT 15/M01 A30 RMK A01 T01541010  RH  033%=      5-min Rain = 0
KDC1 241219Z 33008KT 16/M01 A30 RMK A01 T01561011  RH  032%=      5-min Rain = 0
KDC1 241220Z 33008KT 16/M01 A30 RMK A01 T01571011  RH  032%=      5-min Rain = 0
KDC1 241221Z 32008KT 16/M01 A30 RMK A01 T01581010  RH  032%=      5-min Rain = 0
KDC1 241222Z 31008KT 16/M01 A30 RMK A01 T01581008  RH  032%=      5-min Rain = 0
KDC1 241223Z 31008KT 16/M01 A30 RMK A01 T01571007  RH  033%=      5-min Rain = 0
KDC1 241224Z 31008KT 16/M01 A30 RMK A01 T01561008  RH  032%=      5-min Rain = 0
KDC1 241225Z 32007KT 16/M01 A30 RMK A01 T01561010  RH  032%=      5-min Rain = 0
KDC1 241226Z 32007KT 16/M01 A30 RMK A01 T01561011  RH  032%=      5-min Rain = 0
KDC1 241227Z 31007KT 16/M01 A30 RMK A01 T01561012  RH  032%=      5-min Rain = 0
KDC1 241228Z 32007KT 16/M01 A30 RMK A01 T01561012  RH  032%=      5-min Rain = 0
KDC1 241229Z 32006KT 16/M01 A30 RMK A01 T01561011  RH  032%=      5-min Rain = 0
KDC1 241230Z 32007KT 16/M01 A30 RMK A01 T01571011  RH  032%=      5-min Rain = 0
KDC1 241231Z 32006KT 16/M01 A30 RMK A01 T01571010  RH  032%=      5-min Rain = 0
KDC1 241232Z 32006KT 16/M01 A30 RMK A01 T01571008  RH  032%=      5-min Rain = 0
KDC1 241233Z 33006KT 16/M01 A30 RMK A01 T01581008  RH  032%=      5-min Rain = 0
KDC1 241234Z 33006KT 16/M01 A30 RMK A01 T01591007  RH  032%=      5-min Rain = 0
KDC1 241235Z 33006KT 16/M01 A3001 RMK A01 T01591006  RH  032%=      5-min Rain = 0
KDC1 241236Z 33006KT 16/M01 A3001 RMK A01 T01611006  RH  032%=      5-min Rain = 0
KDC1 241237Z 34006KT 16/M00 A3001 RMK A01 T01611003  RH  033%=      5-min Rain = 0
KDC1 241238Z 34007KT 16/M00 A3001 RMK A01 T01611001  RH  033%=      5-min Rain = 0
KDC1 241239Z 34007KT 16/00 A3001 RMK A01 T016200-0  RH  033%=      5-min Rain = 0
KDC1 241240Z 34007KT 16/00 A3001 RMK A01 T016200-0  RH  033%=      5-min Rain = 0
KDC1 241241Z 34008KT 16/00 A3001 RMK A01 T016300-0  RH  033%=      5-min Rain = 0
KDC1 241242Z 34008KT 16/00 A3001 RMK A01 T01640002  RH  033%=      5-min Rain = 0
KDC1 241243Z 34008KT 16/00 A3001 RMK A01 T01640003  RH  034%=      5-min Rain = 0
KDC1 241244Z 34008KT 17/00 A3001 RMK A01 T01650001  RH  033%=      5-min Rain = 0
KDC1 241245Z 34008KT 17/00 A3001 RMK A01 T01660000  RH  032%=      5-min Rain = 0
KDC1 241246Z 34008KT 17/00 A3001 RMK A01 T01670001  RH  032%=      5-min Rain = 0
KDC1 241247Z 34007KT 17/M00 A3001 RMK A01 T01671001  RH  032%=      5-min Rain = 0
KDC1 241248Z 34006KT 17/00 A3001 RMK A01 T016800-0  RH  032%=      5-min Rain = 0
KDC1 241249Z 34006KT 17/00 A3002 RMK A01 T01690000  RH  032%=      5-min Rain = 0
KDC1 241250Z 34006KT 17/00 A3002 RMK A01 T01700000  RH  032%=      5-min Rain = 0
KDC1 241251Z 34006KT 17/00 A3002 RMK A01 T01700002  RH  032%=      5-min Rain = 0
KDC1 241252Z 34006KT 17/M00 A3002 RMK A01 T01701001  RH  031%=      5-min Rain = 0
KDC1 241253Z 35006KT 17/M00 A3002 RMK A01 T01711003  RH  031%=      5-min Rain = 0
KDC1 241254Z 35006KT 17/M01 A3002 RMK A01 T01721007  RH  030%=      5-min Rain = 0
KDC1 241255Z 35007KT 17/M01 A3002 RMK A01 T01741009  RH  029%=      5-min Rain = 0
KDC1 241256Z 35007KT 18/M02 A3002 RMK A01 T01761016  RH  027%=      5-min Rain = 0
KDC1 241257Z 35007KT 18/M02 A3002 RMK A01 T01781022  RH  026%=      5-min Rain = 0
KDC1 241258Z 35007KT 18/M02 A3002 RMK A01 T01801024  RH  025%=      5-min Rain = 0
KDC1 241259Z 36007KT 18/M02 A3002 RMK A01 T01821024  RH  025%=      5-min Rain = 0
KDC1 241300Z 36007KT 18/M02 A3002 RMK A01 T01831024  RH  024%=      5-min Rain = 0
KDC1 241301Z 35007KT 18/M02 A3002 RMK A01 T01841022  RH  025%=      5-min Rain = 0
KDC1 241302Z 35007KT 19/M02 A3002 RMK A01 T01851021  RH  025%=      5-min Rain = 0
KDC1 241303Z 35007KT 19/M02 A3002 RMK A01 T01861022  RH  024%=      5-min Rain = 0
KDC1 241304Z 35008KT 19/M02 A3002 RMK A01 T01861022  RH  024%=      5-min Rain = 0
KDC1 241305Z 34008KT 19/M02 A3002 RMK A01 T01871023  RH  024%=      5-min Rain = 0
KDC1 241306Z 35008KT 19/M03 A3002 RMK A01 T01871025  RH  023%=      5-min Rain = 0
KDC1 241307Z 35008KT 19/M03 A3002 RMK A01 T01871027  RH  023%=      5-min Rain = 0
KDC1 241308Z 36008KT 19/M03 A3002 RMK A01 T01881027  RH  023%=      5-min Rain = 0
KDC1 241309Z 35007KT 19/M03 A3002 RMK A01 T01891027  RH  023%=      5-min Rain = 0
KDC1 241310Z 36007KT 19/M03 A3002 RMK A01 T01911027  RH  023%=      5-min Rain = 0
KDC1 241311Z 35006KT 19/M03 A3002 RMK A01 T01921025  RH  023%=      5-min Rain = 0
KDC1 241312Z 35005KT 19/M02 A3002 RMK A01 T01931022  RH  023%=      5-min Rain = 0
KDC1 241313Z 35006KT 19/M02 A3002 RMK A01 T01931018  RH  024%=      5-min Rain = 0
KDC1 241314Z 36006KT 19/M02 A3002 RMK A01 T01931016  RH  024%=      5-min Rain = 0
KDC1 241315Z 01005KT 19/M02 A3002 RMK A01 T01931018  RH  024%=      5-min Rain = 0
KDC1 241316Z 01005KT 19/M02 A3002 RMK A01 T01931017  RH  024%=      5-min Rain = 0
KDC1 241317Z 02006KT 19/M01 A3002 RMK A01 T01941014  RH  024%=      5-min Rain = 0
KDC1 241318Z 03005KT 20/M01 A3002 RMK A01 T01951009  RH  025%=      5-min Rain = 0
KDC1 241319Z 02005KT 20/M00 A3002 RMK A01 T01951002  RH  027%=      5-min Rain = 0
KDC1 241320Z 01005KT 19/01 A3002 RMK A01 T01940006  RH  028%=      5-min Rain = 0
KDC1 241321Z 01005KT 19/01 A3002 RMK A01 T01930010  RH  029%=      5-min Rain = 0
KDC1 241322Z 02006KT 19/01 A3002 RMK A01 T01920009  RH  029%=      5-min Rain = 0
KDC1 241323Z 02005KT 19/01 A3002 RMK A01 T01910007  RH  029%=      5-min Rain = 0
KDC1 241324Z 02005KT 19/00 A3002 RMK A01 T01910004  RH  028%=      5-min Rain = 0
KDC1 241325Z 02005KT 19/M00 A3002 RMK A01 T01921001  RH  027%=      5-min Rain = 0
KDC1 241326Z 02004KT 19/M00 A3002 RMK A01 T01931003  RH  027%=      5-min Rain = 0
KDC1 241327Z 02003KT 19/00 A3002 RMK A01 T019400-0  RH  027%=      5-min Rain = 0
KDC1 241328Z 02003KT 20/00 A3003 RMK A01 T01950003  RH  028%=      5-min Rain = 0
KDC1 241329Z 03002KT 20/01 A3003 RMK A01 T01950007  RH  028%=      5-min Rain = 0
KDC1 241330Z 03003KT 20/01 A3003 RMK A01 T01960010  RH  029%=      5-min Rain = 0
KDC1 241331Z 03003KT 20/01 A3003 RMK A01 T01960007  RH  028%=      5-min Rain = 0
KDC1 241332Z 02003KT 20/01 A3003 RMK A01 T01970006  RH  028%=      5-min Rain = 0
KDC1 241333Z 02003KT 20/01 A3003 RMK A01 T01970009  RH  028%=      5-min Rain = 0
KDC1 241334Z 04003KT 20/01 A3003 RMK A01 T01970009  RH  028%=      5-min Rain = 0
KDC1 241335Z 06002KT 20/01 A3003 RMK A01 T01980013  RH  029%=      5-min Rain = 0
KDC1 241336Z 07002KT 20/01 A3003 RMK A01 T01990008  RH  028%=      5-min Rain = 0
KDC1 241337Z 07003KT 20/00 A3003 RMK A01 T01980003  RH  027%=      5-min Rain = 0
KDC1 241338Z 06003KT 20/00 A3003 RMK A01 T01980003  RH  027%=      5-min Rain = 0
KDC1 241339Z 07003KT 20/01 A3003 RMK A01 T01970005  RH  027%=      5-min Rain = 0
KDC1 241340Z 08003KT 20/02 A3003 RMK A01 T01970015  RH  030%=      5-min Rain = 0
KDC1 241341Z 07003KT 20/01 A3003 RMK A01 T01960012  RH  029%=      5-min Rain = 0
KDC1 241342Z 06003KT 19/01 A3003 RMK A01 T01940009  RH  029%=      5-min Rain = 0
KDC1 241343Z 06003KT 19/01 A3003 RMK A01 T01930005  RH  028%=      5-min Rain = 0
KDC1 241344Z 06003KT 19/01 A3004 RMK A01 T01920005  RH  028%=      5-min Rain = 0
KDC1 241345Z 06003KT 19/01 A3004 RMK A01 T01920007  RH  029%=      5-min Rain = 0
KDC1 241346Z 07003KT 19/01 A3004 RMK A01 T01920006  RH  029%=      5-min Rain = 0
KDC1 241347Z 07003KT 19/01 A3004 RMK A01 T01930005  RH  028%=      5-min Rain = 0
KDC1 241348Z 07002KT 19/01 A3003 RMK A01 T01940006  RH  028%=      5-min Rain = 0
KDC1 241349Z 06001KT 20/01 A3003 RMK A01 T01950009  RH  029%=      5-min Rain = 0
KDC1 241350Z 04001KT 20/01 A3003 RMK A01 T01970010  RH  029%=      5-min Rain = 0
KDC1 241351Z 04001KT 20/01 A3003 RMK A01 T01980009  RH  028%=      5-min Rain = 0
KDC1 241352Z 06001KT 20/01 A3003 RMK A01 T02000008  RH  028%=      5-min Rain = 0
KDC1 241353Z 06002KT 20/01 A3004 RMK A01 T02010010  RH  028%=      5-min Rain = 0
KDC1 241354Z 05002KT 20/01 A3004 RMK A01 T02020007  RH  027%=      5-min Rain = 0
KDC1 241355Z 05002KT 20/01 A3004 RMK A01 T02030006  RH  027%=      5-min Rain = 0
KDC1 241356Z 03002KT 20/00 A3004 RMK A01 T02030001  RH  026%=      5-min Rain = 0
KDC1 241357Z 03001KT 20/00 A3004 RMK A01 T02030001  RH  026%=      5-min Rain = 0
KDC1 241358Z 03002KT 20/00 A3004 RMK A01 T02040001  RH  026%=      5-min Rain = 0
KDC1 241359Z 06001KT 21/00 A3004 RMK A01 T020500-0  RH  025%=      5-min Rain = 0
KDC1 241400Z 06002KT 21/00 A3004 RMK A01 T02070001  RH  025%=      5-min Rain = 0
KDC1 241401Z 08002KT 21/00 A3004 RMK A01 T02080004  RH  026%=      5-min Rain = 0
KDC1 241402Z 07002KT 21/01 A3004 RMK A01 T02100014  RH  027%=      5-min Rain = 0
KDC1 241403Z 05001KT 21/02 A3004 RMK A01 T02100017  RH  028%=      5-min Rain = 0
KDC1 241404Z 03001KT 21/02 A3004 RMK A01 T02110017  RH  028%=      5-min Rain = 0
KDC1 241405Z 02001KT 21/02 A3004 RMK A01 T02120019  RH  028%=      5-min Rain = 0
KDC1 241406Z 05001KT 21/01 A3004 RMK A01 T02140011  RH  026%=      5-min Rain = 0
KDC1 241407Z 04001KT 22/00 A3004 RMK A01 T02160004  RH  024%=      5-min Rain = 0
KDC1 241408Z 07001KT 22/00 A3004 RMK A01 T02180003  RH  024%=      5-min Rain = 0
KDC1 241409Z 07001KT 22/00 A3004 RMK A01 T02200002  RH  023%=      5-min Rain = 0
KDC1 241410Z 09002KT 22/00 A3004 RMK A01 T02210004  RH  024%=      5-min Rain = 0
KDC1 241411Z 09002KT 22/04 A3004 RMK A01 T02210037  RH  030%=      5-min Rain = 0
KDC1 241412Z 09001KT 22/06 A3004 RMK A01 T02200063  RH  036%=      5-min Rain = 0
KDC1 241413Z 08001KT 22/06 A3004 RMK A01 T02190058  RH  035%=      5-min Rain = 0
KDC1 241414Z 09002KT 22/06 A3004 RMK A01 T02180061  RH  036%=      5-min Rain = 0
KDC1 241415Z 09001KT 22/06 A3004 RMK A01 T02170063  RH  037%=      5-min Rain = 0
KDC1 241416Z 08002KT 22/05 A3004 RMK A01 T02170045  RH  032%=      5-min Rain = 0
KDC1 241417Z 09002KT 22/03 A3004 RMK A01 T02190032  RH  029%=      5-min Rain = 0
KDC1 241418Z 08002KT 22/02 A3004 RMK A01 T02210016  RH  026%=      5-min Rain = 0
KDC1 241419Z 08003KT 22/00 A3004 RMK A01 T02230003  RH  023%=      5-min Rain = 0
KDC1 241420Z 07003KT 23/M01 A3004 RMK A01 T02251005  RH  022%=      5-min Rain = 0
KDC1 241421Z 08002KT 23/01 A3004 RMK A01 T02270007  RH  023%=      5-min Rain = 0
KDC1 241422Z 07002KT 23/01 A3004 RMK A01 T02290005  RH  023%=      5-min Rain = 0
KDC1 241423Z 07003KT 23/00 A3004 RMK A01 T02300003  RH  022%=      5-min Rain = 0
KDC1 241424Z 08002KT 23/01 A3004 RMK A01 T02310005  RH  022%=      5-min Rain = 0
KDC1 241425Z 08002KT 23/01 A3004 RMK A01 T02310008  RH  023%=      5-min Rain = 0
KDC1 241426Z 07003KT 23/00 A3004 RMK A01 T02330001  RH  021%=      5-min Rain = 0
KDC1 241427Z 08002KT 23/M00 A3004 RMK A01 T02341001  RH  021%=      5-min Rain = 0
KDC1 241428Z 08003KT 24/M00 A3004 RMK A01 T02361001  RH  021%=      5-min Rain = 0
KDC1 241429Z 08003KT 24/M00 A3004 RMK A01 T02361003  RH  020%=      5-min Rain = 0
KDC1 241430Z 07003KT 24/M01 A3004 RMK A01 T02371012  RH  019%=      5-min Rain = 0
KDC1 241431Z 08003KT 24/M00 A3004 RMK A01 T02371003  RH  020%=      5-min Rain = 0
KDC1 241432Z 09002KT 24/M01 A3004 RMK A01 T02381005  RH  020%=      5-min Rain = 0
KDC1 241433Z 08002KT 24/M01 A3004 RMK A01 T02391010  RH  019%=      5-min Rain = 0
KDC1 241434Z 09003KT 24/M01 A3004 RMK A01 T02401011  RH  019%=      5-min Rain = 0
KDC1 241435Z 08003KT 24/M02 A3004 RMK A01 T02421017  RH  018%=      5-min Rain = 0
KDC1 241436Z 07003KT 24/M02 A3004 RMK A01 T02421019  RH  018%=      5-min Rain = 0
KDC1 241437Z 07003KT 24/M01 A3004 RMK A01 T02411014  RH  018%=      5-min Rain = 0
KDC1 241438Z 06003KT 24/M01 A3004 RMK A01 T02411012  RH  019%=      5-min Rain = 0
KDC1 241439Z 07003KT 24/M01 A3004 RMK A01 T02411009  RH  019%=      5-min Rain = 0
KDC1 241440Z 06003KT 24/M01 A3004 RMK A01 T02421012  RH  019%=      5-min Rain = 0
KDC1 241441Z 06003KT 24/M01 A3004 RMK A01 T02421009  RH  019%=      5-min Rain = 0
KDC1 241442Z 06003KT 24/M01 A3004 RMK A01 T02421007  RH  019%=      5-min Rain = 0
KDC1 241443Z 05002KT 24/00 A3004 RMK A01 T02430002  RH  020%=      5-min Rain = 0
KDC1 241444Z 08003KT 24/00 A3004 RMK A01 T02420004  RH  021%=      5-min Rain = 0
KDC1 241445Z 07003KT 24/M01 A3004 RMK A01 T02431009  RH  019%=      5-min Rain = 0
KDC1 241446Z 07003KT 24/M01 A3004 RMK A01 T02431005  RH  019%=      5-min Rain = 0
KDC1 241447Z 07003KT 24/M01 A3004 RMK A01 T02431005  RH  019%=      5-min Rain = 0
KDC1 241448Z 07004KT 24/M00 A3004 RMK A01 T02431003  RH  020%=      5-min Rain = 0
KDC1 241449Z 07003KT 24/M00 A3004 RMK A01 T02441001  RH  020%=      5-min Rain = 0
KDC1 241450Z 07004KT 25/M00 A3004 RMK A01 T02451004  RH  019%=      5-min Rain = 0
KDC1 241451Z 08004KT 25/M01 A3004 RMK A01 T02461006  RH  019%=      5-min Rain = 0
KDC1 241452Z 09004KT 25/M01 A3005 RMK A01 T02471010  RH  018%=      5-min Rain = 0
KDC1 241453Z 09004KT 25/M02 A3005 RMK A01 T02471023  RH  017%=      5-min Rain = 0
KDC1 241454Z 08004KT 25/M01 A3005 RMK A01 T02471013  RH  018%=      5-min Rain = 0
KDC1 241455Z 08005KT 25/M01 A3005 RMK A01 T02471014  RH  018%=      5-min Rain = 0
KDC1 241456Z 08004KT 25/M02 A3005 RMK A01 T02471016  RH  017%=      5-min Rain = 0
KDC1 241457Z 10004KT 25/M01 A3005 RMK A01 T02471012  RH  018%=      5-min Rain = 0
KDC1 241458Z 11004KT 25/05 A3005 RMK A01 T02470051  RH  029%=      5-min Rain = 0
KDC1 241459Z 12004KT 24/07 A3005 RMK A01 T02430067  RH  032%=      5-min Rain = 0
KDC1 241500Z 12003KT 24/08 A3005 RMK A01 T02400077  RH  035%=      5-min Rain = 0
KDC1 241501Z 12004KT 24/08 A3005 RMK A01 T02390075  RH  035%=      5-min Rain = 0
KDC1 241502Z 12004KT 24/07 A3005 RMK A01 T02380066  RH  033%=      5-min Rain = 0
KDC1 241503Z 12004KT 24/07 A3005 RMK A01 T02380071  RH  034%=      5-min Rain = 0
KDC1 241504Z 11005KT 24/05 A3005 RMK A01 T02370052  RH  030%=      5-min Rain = 0
KDC1 241505Z 11004KT 24/03 A3005 RMK A01 T02370029  RH  026%=      5-min Rain = 0
KDC1 241506Z 10005KT 24/04 A3005 RMK A01 T02390041  RH  028%=      5-min Rain = 0
KDC1 241507Z 09005KT 24/02 A3005 RMK A01 T02390017  RH  023%=      5-min Rain = 0
KDC1 241508Z 10005KT 24/01 A3005 RMK A01 T02390006  RH  021%=      5-min Rain = 0
KDC1 241509Z 10004KT 24/01 A3005 RMK A01 T02400005  RH  021%=      5-min Rain = 0
KDC1 241510Z 10005KT 24/00 A3005 RMK A01 T02420002  RH  020%=      5-min Rain = 0
KDC1 241511Z 11004KT 24/02 A3005 RMK A01 T02440024  RH  024%=      5-min Rain = 0
KDC1 241512Z 10004KT 25/04 A3005 RMK A01 T02450041  RH  027%=      5-min Rain = 0
KDC1 241513Z 09004KT 25/03 A3005 RMK A01 T02460026  RH  024%=      5-min Rain = 0
KDC1 241514Z 09003KT 25/00 A3005 RMK A01 T02450001  RH  020%=      5-min Rain = 0
KDC1 241515Z 09003KT 25/02 A3004 RMK A01 T02460016  RH  022%=      5-min Rain = 0
KDC1 241516Z 11004KT 25/03 A3004 RMK A01 T02480027  RH  024%=      5-min Rain = 0
KDC1 241517Z 11004KT 25/04 A3004 RMK A01 T02470039  RH  026%=      5-min Rain = 0
KDC1 241518Z 11004KT 25/05 A3004 RMK A01 T02450054  RH  029%=      5-min Rain = 0
KDC1 241519Z 13004KT 24/06 A3004 RMK A01 T02440057  RH  030%=      5-min Rain = 0
KDC1 241520Z 14004KT 24/08 A3004 RMK A01 T02430076  RH  034%=      5-min Rain = 0
KDC1 241521Z 14005KT 24/08 A3004 RMK A01 T02420084  RH  036%=      5-min Rain = 0
KDC1 241522Z 13004KT 24/08 A3004 RMK A01 T02420083  RH  036%=      5-min Rain = 0
KDC1 241523Z 14004KT 24/09 A3004 RMK A01 T02420087  RH  037%=      5-min Rain = 0
KDC1 241524Z 14004KT 24/08 A3004 RMK A01 T02420079  RH  035%=      5-min Rain = 0
KDC1 241525Z 13004KT 24/07 A3004 RMK A01 T02430073  RH  034%=      5-min Rain = 0
KDC1 241526Z 14004KT 24/06 A3004 RMK A01 T02430062  RH  031%=      5-min Rain = 0
KDC1 241527Z 14004KT 24/06 A3004 RMK A01 T02420060  RH  031%=      5-min Rain = 0
KDC1 241528Z 14004KT 24/07 A3004 RMK A01 T02430067  RH  032%=      5-min Rain = 0
KDC1 241529Z 13004KT 24/07 A3004 RMK A01 T02430070  RH  033%=      5-min Rain = 0
KDC1 241530Z 13003KT 24/06 A3004 RMK A01 T02430063  RH  032%=      5-min Rain = 0
KDC1 241531Z 13003KT 24/04 A3004 RMK A01 T02440044  RH  027%=      5-min Rain = 0
KDC1 241532Z 12003KT 25/05 A3004 RMK A01 T02460054  RH  029%=      5-min Rain = 0
KDC1 241533Z 12003KT 25/05 A3004 RMK A01 T02470054  RH  029%=      5-min Rain = 0
KDC1 241534Z 12002KT 25/05 A3004 RMK A01 T02480047  RH  027%=      5-min Rain = 0
KDC1 241535Z 12002KT 25/05 A3004 RMK A01 T02490054  RH  029%=      5-min Rain = 0
KDC1 241536Z 14002KT 25/05 A3004 RMK A01 T02500054  RH  028%=      5-min Rain = 0
KDC1 241537Z 13002KT 25/05 A3004 RMK A01 T02510054  RH  028%=      5-min Rain = 0
KDC1 241538Z 14002KT 25/07 A3004 RMK A01 T02510066  RH  030%=      5-min Rain = 0
KDC1 241539Z 13003KT 25/06 A3004 RMK A01 T02510058  RH  029%=      5-min Rain = 0
KDC1 241540Z 14002KT 25/05 A3004 RMK A01 T02520051  RH  027%=      5-min Rain = 0
KDC1 241541Z 14004KT 25/06 A3004 RMK A01 T02530059  RH  029%=      5-min Rain = 0
KDC1 241542Z 13003KT 25/06 A3004 RMK A01 T02530062  RH  029%=      5-min Rain = 0
KDC1 241543Z 13003KT 25/05 A3004 RMK A01 T02530047  RH  026%=      5-min Rain = 0
KDC1 241544Z 14003KT 25/04 A3004 RMK A01 T02530041  RH  025%=      5-min Rain = 0
KDC1 241545Z 13003KT 25/05 A3004 RMK A01 T02540045  RH  026%=      5-min Rain = 0
KDC1 241546Z 08004KT 26/02 A3004 RMK A01 T02560017  RH  021%=      5-min Rain = 0
KDC1 241547Z 08003KT 26/M01 A3004 RMK A01 T02601005  RH  018%=      5-min Rain = 0
KDC1 241548Z 07003KT 26/M01 A3004 RMK A01 T02621007  RH  017%=      5-min Rain = 0
KDC1 241549Z 05003KT 26/M01 A3004 RMK A01 T02641006  RH  017%=      5-min Rain = 0
KDC1 241550Z 05003KT 27/M01 A3004 RMK A01 T02651006  RH  017%=      5-min Rain = 0
KDC1 241551Z 06002KT 27/M00 A3004 RMK A01 T02681004  RH  017%=      5-min Rain = 0
KDC1 241552Z 06003KT 27/M00 A3004 RMK A01 T02701003  RH  017%=      5-min Rain = 0
KDC1 241553Z 05003KT 27/M00 A3004 RMK A01 T02711003  RH  017%=      5-min Rain = 0
KDC1 241554Z 05003KT 27/M00 A3004 RMK A01 T02711001  RH  017%=      5-min Rain = 0
KDC1 241555Z 05002KT 27/00 A3004 RMK A01 T027100-0  RH  017%=      5-min Rain = 0
KDC1 241556Z 00002KT 27/M00 A3004 RMK A01 T02711001  RH  017%=      5-min Rain = 0
KDC1 241557Z 01002KT 27/M00 A3004 RMK A01 T02711002  RH  017%=      5-min Rain = 0
KDC1 241558Z 04002KT 27/00 A3004 RMK A01 T02710000  RH  017%=      5-min Rain = 0
KDC1 241559Z 03002KT 27/01 A3004 RMK A01 T02720006  RH  018%=      5-min Rain = 0
KDC1 241600Z 11001KT 28/02 A3004 RMK A01 T02750020  RH  019%=      5-min Rain = 0
KDC1 241601Z 15002KT 28/04 A3004 RMK A01 T02760039  RH  022%=      5-min Rain = 0
KDC1 241602Z 09001KT 28/03 A3004 RMK A01 T02770033  RH  021%=      5-min Rain = 0
KDC1 241603Z 08003KT 28/00 A3004 RMK A01 T02780004  RH  017%=      5-min Rain = 0
KDC1 241604Z 05003KT 28/00 A3004 RMK A01 T02780000  RH  016%=      5-min Rain = 0
KDC1 241605Z 06003KT 28/00 A3004 RMK A01 T02790002  RH  017%=      5-min Rain = 0
KDC1 241606Z 07002KT 28/00 A3004 RMK A01 T02790002  RH  016%=      5-min Rain = 0
KDC1 241607Z 07004KT 28/00 A3004 RMK A01 T02800004  RH  017%=      5-min Rain = 0
KDC1 241608Z 07003KT 28/00 A3003 RMK A01 T02810004  RH  017%=      5-min Rain = 0
KDC1 241609Z 06002KT 28/01 A3003 RMK A01 T02810008  RH  017%=      5-min Rain = 0
KDC1 241610Z 06001KT 28/01 A3003 RMK A01 T02820007  RH  017%=      5-min Rain = 0
KDC1 241611Z 07001KT 28/01 A3003 RMK A01 T02830007  RH  017%=      5-min Rain = 0
KDC1 241612Z 10001KT 28/00 A3003 RMK A01 T02840004  RH  016%=      5-min Rain = 0
KDC1 241613Z 03001KT 29/00 A3003 RMK A01 T02860003  RH  016%=      5-min Rain = 0
KDC1 241614Z 11001KT 29/00 A3003 RMK A01 T02860003  RH  016%=      5-min Rain = 0
KDC1 241615Z 09002KT 29/M00 A3003 RMK A01 T02871001  RH  015%=      5-min Rain = 0
KDC1 241616Z 11003KT 29/01 A3003 RMK A01 T02870010  RH  017%=      5-min Rain = 0
KDC1 241617Z 10004KT 29/00 A3003 RMK A01 T02870004  RH  016%=      5-min Rain = 0
KDC1 241618Z 10002KT 29/M01 A3003 RMK A01 T02871011  RH  014%=      5-min Rain = 0
KDC1 241619Z 09001KT 29/M01 A3003 RMK A01 T02861013  RH  014%=      5-min Rain = 0
KDC1 241620Z 06003KT 29/M01 A3003 RMK A01 T02881014  RH  014%=      5-min Rain = 0
KDC1 241621Z 05000KT 29/M01 A3003 RMK A01 T02891009  RH  014%=      5-min Rain = 0
KDC1 241622Z 03001KT 29/M00 A3003 RMK A01 T02911001  RH  015%=      5-min Rain = 0
KDC1 241623Z 13002KT 29/02 A3003 RMK A01 T02930022  RH  018%=      5-min Rain = 0
KDC1 241624Z 13003KT 29/03 A3003 RMK A01 T02940025  RH  018%=      5-min Rain = 0
KDC1 241625Z 13002KT 29/03 A3003 RMK A01 T02910026  RH  018%=      5-min Rain = 0
KDC1 241626Z 15001KT 29/03 A3003 RMK A01 T02890025  RH  018%=      5-min Rain = 0
KDC1 241627Z 06003KT 29/M00 A3003 RMK A01 T02891004  RH  015%=      5-min Rain = 0
KDC1 241628Z 05002KT 29/M03 A3003 RMK A01 T02901025  RH  013%=      5-min Rain = 0
KDC1 241629Z 04000KT 29/M02 A3003 RMK A01 T02901022  RH  013%=      5-min Rain = 0
KDC1 241630Z 21001KT 29/M02 A3003 RMK A01 T02911023  RH  013%=      5-min Rain = 0
KDC1 241631Z 23001KT 29/M03 A3003 RMK A01 T02901026  RH  013%=      5-min Rain = 0
KDC1 241632Z 25003KT 29/M02 A3003 RMK A01 T02911022  RH  013%=      5-min Rain = 0
KDC1 241633Z 25002KT 29/M03 A3003 RMK A01 T02911025  RH  013%=      5-min Rain = 0
KDC1 241634Z 25002KT 29/M03 A3003 RMK A01 T02901028  RH  012%=      5-min Rain = 0
KDC1 241635Z 23003KT 29/M03 A3003 RMK A01 T02881025  RH  013%=      5-min Rain = 0
KDC1 241636Z 22003KT 29/M03 A3003 RMK A01 T02891032  RH  012%=      5-min Rain = 0
KDC1 241637Z 23001KT 29/M02 A3003 RMK A01 T02891021  RH  013%=      5-min Rain = 0
KDC1 241638Z 22002KT 29/M03 A3003 RMK A01 T02891033  RH  012%=      5-min Rain = 0
KDC1 241639Z 22002KT 29/M04 A3003 RMK A01 T02901044  RH  011%=      5-min Rain = 0
KDC1 241640Z 17002KT 29/M04 A3003 RMK A01 T02911039  RH  011%=      5-min Rain = 0
KDC1 241641Z 16002KT 29/M02 A3003 RMK A01 T02911017  RH  013%=      5-min Rain = 0
KDC1 241642Z 19001KT 29/M02 A3003 RMK A01 T02911020  RH  013%=      5-min Rain = 0
KDC1 241643Z 15004KT 29/02 A3003 RMK A01 T02920021  RH  018%=      5-min Rain = 0
KDC1 241644Z 16004KT 29/01 A3003 RMK A01 T02920010  RH  016%=      5-min Rain = 0
KDC1 241645Z 17004KT 29/M01 A3003 RMK A01 T02911009  RH  014%=      5-min Rain = 0
KDC1 241646Z 17003KT 29/M02 A3003 RMK A01 T02911021  RH  013%=      5-min Rain = 0
KDC1 241647Z 16002KT 29/M01 A3003 RMK A01 T02901008  RH  014%=      5-min Rain = 0
KDC1 241648Z 17003KT 29/M01 A3003 RMK A01 T02911006  RH  015%=      5-min Rain = 0
KDC1 241649Z 16002KT 29/M01 A3003 RMK A01 T02911010  RH  014%=      5-min Rain = 0
KDC1 241650Z 17001KT 29/M03 A3003 RMK A01 T02921031  RH  012%=      5-min Rain = 0
KDC1 241651Z 13002KT 29/M03 A3003 RMK A01 T02941027  RH  012%=      5-min Rain = 0
KDC1 241652Z 14005KT 30/01 A3003 RMK A01 T02960009  RH  016%=      5-min Rain = 0
KDC1 241653Z 14005KT 30/02 A3003 RMK A01 T02950016  RH  017%=      5-min Rain = 0
KDC1 241654Z 16004KT 29/M00 A3003 RMK A01 T02931004  RH  015%=      5-min Rain = 0
KDC1 241655Z 15001KT 29/M03 A3003 RMK A01 T02931025  RH  012%=      5-min Rain = 0
KDC1 241656Z 14003KT 29/M02 A3003 RMK A01 T02931018  RH  013%=      5-min Rain = 0
KDC1 241657Z 14003KT 29/M02 A3003 RMK A01 T02941019  RH  013%=      5-min Rain = 0
KDC1 241658Z 13004KT 29/M01 A3003 RMK A01 T02941007  RH  014%=      5-min Rain = 0
KDC1 241659Z 13003KT 29/M01 A3003 RMK A01 T02931011  RH  014%=      5-min Rain = 0
KDC1 241700Z 11001KT 29/M02 A3003 RMK A01 T02921024  RH  013%=      5-min Rain = 0
KDC1 241701Z 15002KT 29/00 A3003 RMK A01 T02930002  RH  015%=      5-min Rain = 0
KDC1 241702Z 12003KT 29/02 A3003 RMK A01 T02930018  RH  017%=      5-min Rain = 0
KDC1 241703Z 11003KT 29/M02 A3003 RMK A01 T02931020  RH  013%=      5-min Rain = 0
KDC1 241704Z 12002KT 29/M03 A3003 RMK A01 T02941027  RH  012%=      5-min Rain = 0
KDC1 241705Z 12000KT 30/M03 A3003 RMK A01 T02951027  RH  012%=      5-min Rain = 0
KDC1 241706Z 13000KT 30/M02 A3003 RMK A01 T02961023  RH  012%=      5-min Rain = 0
KDC1 241707Z 11002KT 30/M01 A3003 RMK A01 T02971006  RH  014%=      5-min Rain = 0
KDC1 241708Z 12002KT 30/01 A3003 RMK A01 T02980010  RH  016%=      5-min Rain = 0
KDC1 241709Z 14002KT 30/02 A3003 RMK A01 T02980024  RH  017%=      5-min Rain = 0
KDC1 241710Z 17003KT 30/M01 A3003 RMK A01 T02981006  RH  014%=      5-min Rain = 0
KDC1 241711Z 18002KT 30/M01 A3003 RMK A01 T02961007  RH  014%=      5-min Rain = 0
KDC1 241712Z 15003KT 30/M00 A3003 RMK A01 T02961004  RH  014%=      5-min Rain = 0
KDC1 241713Z 16002KT 30/M01 A3003 RMK A01 T02971008  RH  014%=      5-min Rain = 0
KDC1 241714Z 16002KT 30/M02 A3003 RMK A01 T02981018  RH  013%=      5-min Rain = 0
KDC1 241715Z 17002KT 30/M02 A3003 RMK A01 T02971020  RH  013%=      5-min Rain = 0
KDC1 241716Z 16001KT 30/M02 A3003 RMK A01 T02971020  RH  013%=      5-min Rain = 0
KDC1 241717Z 15001KT 30/M02 A3003 RMK A01 T02971019  RH  013%=      5-min Rain = 0
KDC1 241718Z 17000KT 30/M02 A3003 RMK A01 T02981021  RH  012%=      5-min Rain = 0
KDC1 241719Z 29000KT 30/M03 A3003 RMK A01 T02971027  RH  012%=      5-min Rain = 0
KDC1 241720Z 34001KT 30/M02 A3003 RMK A01 T02991024  RH  012%=      5-min Rain = 0
KDC1 241721Z 29000KT 30/M02 A3003 RMK A01 T02991018  RH  013%=      5-min Rain = 0
KDC1 241722Z 13001KT 30/M01 A3003 RMK A01 T03001010  RH  013%=      5-min Rain = 0
KDC1 241723Z 12002KT 30/M02 A3003 RMK A01 T03021017  RH  013%=      5-min Rain = 0
KDC1 241724Z 11002KT 30/M02 A3003 RMK A01 T03021024  RH  012%=      5-min Rain = 0
KDC1 241725Z 12002KT 30/M02 A3003 RMK A01 T03021024  RH  012%=      5-min Rain = 0
KDC1 241726Z 13002KT 30/M02 A3003 RMK A01 T03021019  RH  012%=      5-min Rain = 0
KDC1 241727Z 14002KT 30/M01 A3003 RMK A01 T03031012  RH  013%=      5-min Rain = 0
KDC1 241728Z 12002KT 30/M02 A3003 RMK A01 T03031023  RH  012%=      5-min Rain = 0
KDC1 241729Z 13002KT 30/M02 A3003 RMK A01 T03031016  RH  013%=      5-min Rain = 0
KDC1 241730Z 12001KT 30/M01 A3003 RMK A01 T03011010  RH  013%=      5-min Rain = 0
KDC1 241731Z 13001KT 30/M00 A3003 RMK A01 T02991001  RH  014%=      5-min Rain = 0
KDC1 241732Z 13002KT 30/00 A3003 RMK A01 T02990004  RH  015%=      5-min Rain = 0
KDC1 241733Z 12002KT 30/M01 A3003 RMK A01 T03001008  RH  014%=      5-min Rain = 0
KDC1 241734Z 13001KT 30/M01 A3003 RMK A01 T03011013  RH  013%=      5-min Rain = 0
KDC1 241735Z 15001KT 30/M01 A3003 RMK A01 T03011010  RH  013%=      5-min Rain = 0
KDC1 241736Z 14001KT 30/M02 A3003 RMK A01 T03021016  RH  013%=      5-min Rain = 0
KDC1 241737Z 16000KT 30/M02 A3003 RMK A01 T03041021  RH  012%=      5-min Rain = 0
KDC1 241738Z 00000KT 31/M02 A3003 RMK A01 T03061022  RH  012%=      5-min Rain = 0
KDC1 241739Z 14000KT 31/M02 A3003 RMK A01 T03091022  RH  012%=      5-min Rain = 0
KDC1 241740Z 13001KT 31/M01 A3003 RMK A01 T03091008  RH  013%=      5-min Rain = 0
KDC1 241741Z 12001KT 31/M01 A3003 RMK A01 T03101012  RH  012%=      5-min Rain = 0
KDC1 241742Z 13001KT 31/M01 A3003 RMK A01 T03101007  RH  013%=      5-min Rain = 0
KDC1 241743Z 14002KT 31/M01 A3002 RMK A01 T03101007  RH  013%=      5-min Rain = 0
KDC1 241744Z 13001KT 31/M00 A3002 RMK A01 T03101003  RH  013%=      5-min Rain = 0
KDC1 241745Z 14003KT 31/02 A3002 RMK A01 T03100018  RH  016%=      5-min Rain = 0
KDC1 241746Z 12002KT 31/01 A3002 RMK A01 T03110011  RH  015%=      5-min Rain = 0
KDC1 241747Z 12002KT 31/00 A3002 RMK A01 T031100-0  RH  014%=      5-min Rain = 0
KDC1 241748Z 15002KT 31/00 A3002 RMK A01 T031100-0  RH  013%=      5-min Rain = 0
KDC1 241749Z 13002KT 31/01 A3002 RMK A01 T03090013  RH  015%=      5-min Rain = 0
KDC1 241750Z 12002KT 31/01 A3002 RMK A01 T03090011  RH  015%=      5-min Rain = 0
KDC1 241751Z 13003KT 31/01 A3002 RMK A01 T03090010  RH  015%=      5-min Rain = 0
KDC1 241752Z 12002KT 31/M00 A3002 RMK A01 T03081001  RH  014%=      5-min Rain = 0
KDC1 241753Z 13003KT 31/03 A3002 RMK A01 T03070029  RH  017%=      5-min Rain = 0
KDC1 241754Z 13003KT 31/05 A3002 RMK A01 T03070050  RH  020%=      5-min Rain = 0
KDC1 241755Z 12003KT 31/M00 A3002 RMK A01 T03071001  RH  014%=      5-min Rain = 0
KDC1 241756Z 11003KT 31/00 A3002 RMK A01 T03070001  RH  014%=      5-min Rain = 0
KDC1 241757Z 11003KT 31/00 A3002 RMK A01 T03080004  RH  014%=      5-min Rain = 0
KDC1 241758Z 10003KT 31/01 A3002 RMK A01 T03080010  RH  015%=      5-min Rain = 0
KDC1 241759Z 10004KT 31/M01 A3002 RMK A01 T03071012  RH  013%=      5-min Rain = 0
KDC1 241800Z 10003KT 31/M02 A3002 RMK A01 T03071020  RH  012%=      5-min Rain = 0
KDC1 241801Z 12003KT 31/M01 A3002 RMK A01 T03081012  RH  013%=      5-min Rain = 0
KDC1 241802Z 13004KT 31/M01 A3002 RMK A01 T03081006  RH  013%=      5-min Rain = 0
KDC1 241803Z 12002KT 31/M01 A3002 RMK A01 T03081007  RH  013%=      5-min Rain = 0
KDC1 241804Z 13001KT 31/M02 A3002 RMK A01 T03091017  RH  012%=      5-min Rain = 0
KDC1 241805Z 16002KT 31/01 A3002 RMK A01 T03100005  RH  014%=      5-min Rain = 0
KDC1 241806Z 18001KT 31/M01 A3002 RMK A01 T03111011  RH  012%=      5-min Rain = 0
KDC1 241807Z 14001KT 31/M02 A3002 RMK A01 T03121017  RH  012%=      5-min Rain = 0
KDC1 241808Z 11000KT 31/M02 A3002 RMK A01 T03121016  RH  012%=      5-min Rain = 0
KDC1 241809Z 14001KT 31/M01 A3002 RMK A01 T03131013  RH  012%=      5-min Rain = 0
KDC1 241810Z 17002KT 31/M01 A3002 RMK A01 T03141005  RH  013%=      5-min Rain = 0
KDC1 241811Z 20002KT 31/M01 A3002 RMK A01 T03131006  RH  013%=      5-min Rain = 0
KDC1 241812Z 22002KT 31/M00 A3002 RMK A01 T03121004  RH  013%=      5-min Rain = 0
KDC1 241813Z 20000KT 31/00 A3002 RMK A01 T031200-0  RH  013%=      5-min Rain = 0
KDC1 241814Z 14003KT 31/M00 A3002 RMK A01 T03121001  RH  013%=      5-min Rain = 0
KDC1 241815Z 14003KT 31/02 A3002 RMK A01 T03120017  RH  015%=      5-min Rain = 0
KDC1 241816Z 17001KT 31/M01 A3002 RMK A01 T03121011  RH  012%=      5-min Rain = 0
KDC1 241817Z 17001KT 31/M02 A3002 RMK A01 T03131015  RH  012%=      5-min Rain = 0
KDC1 241818Z 17004KT 32/02 A3001 RMK A01 T03150019  RH  015%=      5-min Rain = 0
KDC1 241819Z 15003KT 32/01 A3001 RMK A01 T03150005  RH  014%=      5-min Rain = 0
KDC1 241820Z 15002KT 32/M01 A3001 RMK A01 T03151010  RH  012%=      5-min Rain = 0
KDC1 241821Z 13002KT 32/M02 A3001 RMK A01 T03151016  RH  012%=      5-min Rain = 0
KDC1 241822Z 12004KT 32/M01 A3001 RMK A01 T03161008  RH  012%=      5-min Rain = 0
KDC1 241823Z 14003KT 32/01 A3001 RMK A01 T03160010  RH  014%=      5-min Rain = 0
KDC1 241824Z 15003KT 32/M00 A3001 RMK A01 T03151001  RH  013%=      5-min Rain = 0
KDC1 241825Z 18002KT 32/M01 A3001 RMK A01 T03151010  RH  012%=      5-min Rain = 0
KDC1 241826Z 12001KT 32/M01 A3001 RMK A01 T03151014  RH  012%=      5-min Rain = 0
KDC1 241827Z 16001KT 32/M00 A3001 RMK A01 T03161001  RH  013%=      5-min Rain = 0
KDC1 241828Z 14002KT 32/00 A3001 RMK A01 T03180002  RH  013%=      5-min Rain = 0
KDC1 241829Z 18001KT 32/00 A3001 RMK A01 T03190003  RH  013%=      5-min Rain = 0
KDC1 241830Z 16001KT 32/M01 A3001 RMK A01 T03201012  RH  012%=      5-min Rain = 0
KDC1 241831Z 15001KT 32/M01 A3001 RMK A01 T03201009  RH  012%=      5-min Rain = 0
KDC1 241832Z 12002KT 32/M00 A3001 RMK A01 T03221002  RH  012%=      5-min Rain = 0
KDC1 241833Z 12003KT 32/01 A3001 RMK A01 T03230008  RH  013%=      5-min Rain = 0
KDC1 241834Z 12002KT 32/M02 A3001 RMK A01 T03231016  RH  011%=      5-min Rain = 0
KDC1 241835Z 09003KT 32/M02 A3001 RMK A01 T03211015  RH  011%=      5-min Rain = 0
KDC1 241836Z 11003KT 32/M01 A3001 RMK A01 T03211014  RH  012%=      5-min Rain = 0
KDC1 241837Z 10001KT 32/M02 A3001 RMK A01 T03211015  RH  011%=      5-min Rain = 0
KDC1 241838Z 07001KT 32/M02 A3001 RMK A01 T03201019  RH  011%=      5-min Rain = 0
KDC1 241839Z 09002KT 32/M01 A3001 RMK A01 T03201007  RH  012%=      5-min Rain = 0
KDC1 241840Z 12003KT 32/M00 A3001 RMK A01 T03211004  RH  012%=      5-min Rain = 0
KDC1 241841Z 11004KT 32/M00 A30 RMK A01 T03211002  RH  013%=      5-min Rain = 0
KDC1 241842Z 09004KT 32/M02 A30 RMK A01 T03201023  RH  011%=      5-min Rain = 0
KDC1 241843Z 11005KT 32/00 A30 RMK A01 T03190003  RH  013%=      5-min Rain = 0
KDC1 241844Z 11006KT 32/01 A30 RMK A01 T03190011  RH  014%=      5-min Rain = 0
KDC1 241845Z 10006KT 32/M02 A30 RMK A01 T03191022  RH  011%=      5-min Rain = 0
KDC1 241846Z 09003KT 32/M03 A30 RMK A01 T03181026  RH  011%=      5-min Rain = 0
KDC1 241847Z 09004KT 32/M03 A30 RMK A01 T03191026  RH  011%=      5-min Rain = 0
KDC1 241848Z 12004KT 32/M01 A30 RMK A01 T03201012  RH  012%=      5-min Rain = 0
KDC1 241849Z 13003KT 32/M01 A30 RMK A01 T03221006  RH  012%=      5-min Rain = 0
KDC1 241850Z 13002KT 32/M02 A30 RMK A01 T03211020  RH  011%=      5-min Rain = 0
KDC1 241851Z 12003KT 32/M02 A30 RMK A01 T03211021  RH  011%=      5-min Rain = 0
KDC1 241852Z 10004KT 32/M00 A30 RMK A01 T03221002  RH  013%=      5-min Rain = 0
KDC1 241853Z 11003KT 32/M02 A30 RMK A01 T03241019  RH  011%=      5-min Rain = 0
KDC1 241854Z 14002KT 33/M03 A30 RMK A01 T03251029  RH  010%=      5-min Rain = 0
KDC1 241855Z 12003KT 33/M02 A30 RMK A01 T03251020  RH  011%=      5-min Rain = 0
KDC1 241856Z 10003KT 33/00 A30 RMK A01 T032600-0  RH  012%=      5-min Rain = 0
KDC1 241857Z 12004KT 33/01 A30 RMK A01 T03250006  RH  013%=      5-min Rain = 0
KDC1 241858Z 12004KT 33/04 A30 RMK A01 T03260041  RH  017%=      5-min Rain = 0
KDC1 241859Z 12004KT 33/05 A30 RMK A01 T03250045  RH  017%=      5-min Rain = 0
KDC1 241900Z 11005KT 33/05 A30 RMK A01 T03250048  RH  018%=      5-min Rain = 0
KDC1 241901Z 12007KT 32/02 A30 RMK A01 T03240020  RH  015%=      5-min Rain = 0
KDC1 241902Z 12005KT 33/06 A30 RMK A01 T03250057  RH  019%=      5-min Rain = 0
KDC1 241903Z 12007KT 32/08 A30 RMK A01 T03240082  RH  023%=      5-min Rain = 0
KDC1 241904Z 11005KT 32/06 A30 RMK A01 T03220060  RH  019%=      5-min Rain = 0
KDC1 241905Z 12005KT 32/06 A30 RMK A01 T03210062  RH  020%=      5-min Rain = 0
KDC1 241906Z 13005KT 32/05 A30 RMK A01 T03210045  RH  018%=      5-min Rain = 0
KDC1 241907Z 13005KT 32/06 A30 RMK A01 T03210061  RH  020%=      5-min Rain = 0
KDC1 241908Z 09004KT 32/04 A30 RMK A01 T03210038  RH  017%=      5-min Rain = 0
KDC1 241909Z 08005KT 32/M02 A30 RMK A01 T03241023  RH  011%=      5-min Rain = 0
KDC1 241910Z 08004KT 32/M03 A2999 RMK A01 T03241027  RH  010%=      5-min Rain = 0
KDC1 241911Z 10003KT 32/M03 A2999 RMK A01 T03241026  RH  010%=      5-min Rain = 0
KDC1 241912Z 08003KT 32/M02 A2999 RMK A01 T03241024  RH  011%=      5-min Rain = 0
KDC1 241913Z 10004KT 33/M02 A2999 RMK A01 T03251021  RH  011%=      5-min Rain = 0
KDC1 241914Z 08005KT 33/M02 A2999 RMK A01 T03251019  RH  011%=      5-min Rain = 0
KDC1 241915Z 07002KT 33/M03 A2999 RMK A01 T03261029  RH  010%=      5-min Rain = 0
KDC1 241916Z 05003KT 33/M03 A2999 RMK A01 T03271033  RH  010%=      5-min Rain = 0
KDC1 241917Z 05003KT 33/M04 A2999 RMK A01 T03261035  RH  010%=      5-min Rain = 0
KDC1 241918Z 05002KT 33/M04 A2999 RMK A01 T03261038  RH  009%=      5-min Rain = 0
KDC1 241919Z 05003KT 33/M04 A2999 RMK A01 T03251036  RH  010%=      5-min Rain = 0
KDC1 241920Z 05004KT 33/M03 A2999 RMK A01 T03271033  RH  010%=      5-min Rain = 0
KDC1 241921Z 05003KT 33/M03 A2999 RMK A01 T03281031  RH  010%=      5-min Rain = 0
KDC1 241922Z 35003KT 33/M04 A2999 RMK A01 T03281035  RH  009%=      5-min Rain = 0
KDC1 241923Z 00001KT 33/M04 A2999 RMK A01 T03271035  RH  010%=      5-min Rain = 0
KDC1 241924Z 12003KT 33/M03 A2999 RMK A01 T03281026  RH  010%=      5-min Rain = 0
KDC1 241925Z 12004KT 33/M01 A2999 RMK A01 T03291012  RH  011%=      5-min Rain = 0
KDC1 241926Z 12005KT 33/M01 A2999 RMK A01 T03291007  RH  012%=      5-min Rain = 0
KDC1 241927Z 12005KT 33/M02 A2999 RMK A01 T03281015  RH  011%=      5-min Rain = 0
KDC1 241928Z 12002KT 33/M03 A2999 RMK A01 T03281029  RH  010%=      5-min Rain = 0
KDC1 241929Z 10004KT 33/M03 A2999 RMK A01 T03301027  RH  010%=      5-min Rain = 0
KDC1 241930Z 09004KT 33/M03 A2999 RMK A01 T03331029  RH  010%=      5-min Rain = 0
KDC1 241931Z 09003KT 33/M03 A2999 RMK A01 T03331029  RH  010%=      5-min Rain = 0
KDC1 241932Z 11004KT 33/00 A2999 RMK A01 T03320001  RH  012%=      5-min Rain = 0
KDC1 241933Z 12004KT 33/00 A2999 RMK A01 T03330004  RH  012%=      5-min Rain = 0
KDC1 241934Z 11004KT 33/M00 A2998 RMK A01 T03311003  RH  012%=      5-min Rain = 0
KDC1 241935Z 11004KT 33/M01 A2998 RMK A01 T03321014  RH  011%=      5-min Rain = 0
KDC1 241936Z 11004KT 33/M01 A2998 RMK A01 T03321011  RH  011%=      5-min Rain = 0
KDC1 241937Z 11003KT 33/00 A2998 RMK A01 T03320004  RH  012%=      5-min Rain = 0
KDC1 241938Z 11002KT 33/M00 A2998 RMK A01 T03311004  RH  012%=      5-min Rain = 0
KDC1 241939Z 11002KT 33/M02 A2998 RMK A01 T03321017  RH  011%=      5-min Rain = 0
KDC1 241940Z 12003KT 33/M00 A2998 RMK A01 T03341001  RH  012%=      5-min Rain = 0
KDC1 241941Z 12006KT 34/02 A2998 RMK A01 T03360019  RH  014%=      5-min Rain = 0
KDC1 241942Z 12006KT 34/05 A2998 RMK A01 T03350054  RH  017%=      5-min Rain = 0
KDC1 241943Z 11005KT 33/06 A2998 RMK A01 T03320055  RH  018%=      5-min Rain = 0
KDC1 241944Z 12004KT 33/04 A2998 RMK A01 T03320039  RH  016%=      5-min Rain = 0
KDC1 241945Z 10004KT 33/M01 A2998 RMK A01 T03311007  RH  012%=      5-min Rain = 0
KDC1 241946Z 10005KT 33/M02 A2998 RMK A01 T03331020  RH  010%=      5-min Rain = 0
KDC1 241947Z 10006KT 34/M02 A2998 RMK A01 T03351020  RH  010%=      5-min Rain = 0
KDC1 241948Z 11006KT 34/M02 A2998 RMK A01 T03361015  RH  011%=      5-min Rain = 0
KDC1 241949Z 10005KT 33/M03 A2998 RMK A01 T03341029  RH  010%=      5-min Rain = 0
KDC1 241950Z 10005KT 33/M04 A2998 RMK A01 T03331037  RH  009%=      5-min Rain = 0
KDC1 241951Z 12004KT 33/M03 A2998 RMK A01 T03321025  RH  010%=      5-min Rain = 0
KDC1 241952Z 15003KT 33/M03 A2998 RMK A01 T03321027  RH  010%=      5-min Rain = 0
KDC1 241953Z 16005KT 33/02 A2998 RMK A01 T03330016  RH  014%=      5-min Rain = 0
KDC1 241954Z 15005KT 33/M01 A2998 RMK A01 T03341009  RH  011%=      5-min Rain = 0
KDC1 241955Z 17003KT 34/M01 A2998 RMK A01 T03351012  RH  011%=      5-min Rain = 0
KDC1 241956Z 19003KT 34/M01 A2998 RMK A01 T03371005  RH  011%=      5-min Rain = 0
KDC1 241957Z 19003KT 34/M03 A2998 RMK A01 T03371025  RH  010%=      5-min Rain = 0
KDC1 241958Z 14002KT 34/M01 A2998 RMK A01 T03361013  RH  011%=      5-min Rain = 0
KDC1 241959Z 13003KT 34/04 A2998 RMK A01 T03370035  RH  015%=      5-min Rain = 0
KDC1 242000Z 11006KT 34/05 A2998 RMK A01 T03370050  RH  017%=      5-min Rain = 0
KDC1 242001Z 11004KT 34/M03 A2998 RMK A01 T03361030  RH  009%=      5-min Rain = 0
KDC1 242002Z 12004KT 34/M01 A2998 RMK A01 T03381014  RH  011%=      5-min Rain = 0
KDC1 242003Z 10002KT 34/M02 A2998 RMK A01 T03381018  RH  010%=      5-min Rain = 0
KDC1 242004Z 09002KT 34/M02 A2998 RMK A01 T03381021  RH  010%=      5-min Rain = 0
KDC1 242005Z 08001KT 34/M04 A2997 RMK A01 T03391038  RH  009%=      5-min Rain = 0
KDC1 242006Z 10002KT 34/M04 A2997 RMK A01 T03401038  RH  009%=      5-min Rain = 0
KDC1 242007Z 13003KT 34/M03 A2997 RMK A01 T03401033  RH  009%=      5-min Rain = 0
KDC1 242008Z 13003KT 34/M01 A2997 RMK A01 T03391006  RH  011%=      5-min Rain = 0
KDC1 242009Z 13002KT 34/M02 A2997 RMK A01 T03381023  RH  010%=      5-min Rain = 0
KDC1 242010Z 10003KT 34/M03 A2997 RMK A01 T03381028  RH  009%=      5-min Rain = 0
KDC1 242011Z 08004KT 34/M04 A2997 RMK A01 T03391037  RH  009%=      5-min Rain = 0
KDC1 242012Z 08003KT 34/M04 A2997 RMK A01 T03391039  RH  009%=      5-min Rain = 0
KDC1 242013Z 08004KT 34/M02 A2997 RMK A01 T03391022  RH  010%=      5-min Rain = 0
KDC1 242014Z 12007KT 34/05 A2997 RMK A01 T03380046  RH  016%=      5-min Rain = 0
KDC1 242015Z 11005KT 34/M01 A2997 RMK A01 T03371012  RH  011%=      5-min Rain = 0
KDC1 242016Z 10004KT 34/M03 A2997 RMK A01 T03361027  RH  010%=      5-min Rain = 0
KDC1 242017Z 12005KT 34/M02 A2997 RMK A01 T03381015  RH  011%=      5-min Rain = 0
KDC1 242018Z 11004KT 34/M01 A2997 RMK A01 T03391011  RH  011%=      5-min Rain = 0
KDC1 242019Z 10005KT 34/M00 A2997 RMK A01 T03381004  RH  011%=      5-min Rain = 0
KDC1 242020Z 11004KT 34/M04 A2997 RMK A01 T03391035  RH  009%=      5-min Rain = 0
KDC1 242021Z 10004KT 34/M04 A2997 RMK A01 T03401036  RH  009%=      5-min Rain = 0
KDC1 242022Z 11005KT 34/M02 A2996 RMK A01 T03421021  RH  010%=      5-min Rain = 0
KDC1 242023Z 12005KT 34/02 A2996 RMK A01 T03430022  RH  014%=      5-min Rain = 0
KDC1 242024Z 14003KT 34/05 A2996 RMK A01 T03410045  RH  016%=      5-min Rain = 0
KDC1 242025Z 13002KT 34/02 A2996 RMK A01 T03400018  RH  013%=      5-min Rain = 0
KDC1 242026Z 13004KT 34/05 A2996 RMK A01 T03400048  RH  016%=      5-min Rain = 0
KDC1 242027Z 13005KT 34/03 A2996 RMK A01 T03390026  RH  014%=      5-min Rain = 0
KDC1 242028Z 13004KT 34/02 A2996 RMK A01 T03380021  RH  014%=      5-min Rain = 0
KDC1 242029Z 17005KT 34/03 A2996 RMK A01 T03370027  RH  014%=      5-min Rain = 0
KDC1 242030Z 17005KT 34/01 A2996 RMK A01 T03370009  RH  012%=      5-min Rain = 0
KDC1 242031Z 17007KT 34/01 A2996 RMK A01 T03390012  RH  013%=      5-min Rain = 0
KDC1 242032Z 16005KT 34/M03 A2996 RMK A01 T03391029  RH  009%=      5-min Rain = 0
KDC1 242033Z 13004KT 34/07 A2996 RMK A01 T03400069  RH  019%=      5-min Rain = 0
KDC1 242034Z 13008KT 34/09 A2996 RMK A01 T03390094  RH  023%=      5-min Rain = 0
KDC1 242035Z 14008KT 34/02 A2996 RMK A01 T03390021  RH  014%=      5-min Rain = 0
KDC1 242036Z 15008KT 34/06 A2996 RMK A01 T03380058  RH  018%=      5-min Rain = 0
KDC1 242037Z 13005KT 34/00 A2996 RMK A01 T03360003  RH  012%=      5-min Rain = 0
KDC1 242038Z 12007KT 34/M02 A2996 RMK A01 T03371018  RH  010%=      5-min Rain = 0
KDC1 242039Z 12005KT 34/M02 A2996 RMK A01 T03381018  RH  010%=      5-min Rain = 0
KDC1 242040Z 14003KT 34/M03 A2995 RMK A01 T03391030  RH  009%=      5-min Rain = 0
KDC1 242041Z 14002KT 34/M00 A2995 RMK A01 T03401004  RH  011%=      5-min Rain = 0
KDC1 242042Z 13003KT 34/M02 A2995 RMK A01 T03421015  RH  010%=      5-min Rain = 0
KDC1 242043Z 12004KT 34/M02 A2995 RMK A01 T03421020  RH  010%=      5-min Rain = 0
KDC1 242044Z 12005KT 34/M01 A2995 RMK A01 T03421010  RH  011%=      5-min Rain = 0
KDC1 242045Z 13004KT 34/01 A2995 RMK A01 T03430011  RH  012%=      5-min Rain = 0
KDC1 242046Z 13005KT 34/04 A2995 RMK A01 T03420044  RH  016%=      5-min Rain = 0
KDC1 242047Z 12006KT 34/04 A2995 RMK A01 T03410037  RH  015%=      5-min Rain = 0
KDC1 242048Z 13008KT 34/03 A2995 RMK A01 T03400025  RH  014%=      5-min Rain = 0
KDC1 242049Z 13006KT 34/03 A2995 RMK A01 T03370027  RH  014%=      5-min Rain = 0
KDC1 242050Z 11004KT 34/02 A2995 RMK A01 T03380019  RH  014%=      5-min Rain = 0
KDC1 242051Z 13003KT 34/02 A2995 RMK A01 T03390015  RH  013%=      5-min Rain = 0
KDC1 242052Z 10002KT 34/M02 A2995 RMK A01 T03401018  RH  010%=      5-min Rain = 0
KDC1 242053Z 14003KT 34/M02 A2995 RMK A01 T03411019  RH  010%=      5-min Rain = 0
KDC1 242054Z 13004KT 34/03 A2995 RMK A01 T03420026  RH  014%=      5-min Rain = 0
KDC1 242055Z 12005KT 34/04 A2995 RMK A01 T03420040  RH  015%=      5-min Rain = 0
KDC1 242056Z 11007KT 34/04 A2995 RMK A01 T03420042  RH  015%=      5-min Rain = 0
KDC1 242057Z 12008KT 34/06 A2995 RMK A01 T03400060  RH  018%=      5-min Rain = 0
KDC1 242058Z 13007KT 34/08 A2994 RMK A01 T03370077  RH  020%=      5-min Rain = 0
KDC1 242059Z 13005KT 34/06 A2994 RMK A01 T03350058  RH  018%=      5-min Rain = 0
KDC1 242100Z 16004KT 34/06 A2994 RMK A01 T03360059  RH  018%=      5-min Rain = 0
KDC1 242101Z 12003KT 34/04 A2994 RMK A01 T03370035  RH  015%=      5-min Rain = 0
KDC1 242102Z 12005KT 34/M02 A2994 RMK A01 T03391017  RH  010%=      5-min Rain = 0
KDC1 242103Z 13006KT 34/05 A2994 RMK A01 T03410051  RH  016%=      5-min Rain = 0
KDC1 242104Z 13006KT 34/08 A2994 RMK A01 T03410084  RH  021%=      5-min Rain = 0
KDC1 242105Z 15003KT 34/09 A2994 RMK A01 T03400090  RH  022%=      5-min Rain = 0
KDC1 242106Z 26006KT 34/02 A2994 RMK A01 T03390022  RH  014%=      5-min Rain = 0
KDC1 242107Z 26006KT 34/M03 A2994 RMK A01 T03421031  RH  009%=      5-min Rain = 0
KDC1 242108Z 21004KT 35/M03 A2994 RMK A01 T03451031  RH  009%=      5-min Rain = 0
KDC1 242109Z 25002KT 35/M02 A2994 RMK A01 T03481018  RH  010%=      5-min Rain = 0
KDC1 242110Z 13005KT 35/03 A2994 RMK A01 T03530027  RH  013%=      5-min Rain = 0
KDC1 242111Z 14004KT 35/09 A2994 RMK A01 T03490093  RH  021%=      5-min Rain = 0
KDC1 242112Z 16002KT 35/09 A2994 RMK A01 T03450087  RH  021%=      5-min Rain = 0
KDC1 242113Z 31001KT 34/04 A2994 RMK A01 T03440035  RH  015%=      5-min Rain = 0
KDC1 242114Z 24003KT 35/01 A2994 RMK A01 T03460006  RH  012%=      5-min Rain = 0
KDC1 242115Z 24003KT 35/M01 A2994 RMK A01 T03491008  RH  010%=      5-min Rain = 0
KDC1 242116Z 25004KT 35/M00 A2994 RMK A01 T03521002  RH  011%=      5-min Rain = 0
KDC1 242117Z 26006KT 36/M01 A2994 RMK A01 T03561005  RH  010%=      5-min Rain = 0
KDC1 242118Z 25005KT 36/00 A2994 RMK A01 T03580002  RH  011%=      5-min Rain = 0
KDC1 242119Z 27005KT 36/M02 A2994 RMK A01 T03571020  RH  009%=      5-min Rain = 0
KDC1 242120Z 29006KT 36/M04 A2994 RMK A01 T03561039  RH  008%=      5-min Rain = 0
KDC1 242121Z 27004KT 36/M04 A2993 RMK A01 T03561037  RH  008%=      5-min Rain = 0
KDC1 242122Z 17003KT 36/M02 A2993 RMK A01 T03591019  RH  009%=      5-min Rain = 0
KDC1 242123Z 19008KT 36/01 A2993 RMK A01 T03570008  RH  011%=      5-min Rain = 0
KDC1 242124Z 19004KT 35/M02 A2993 RMK A01 T03541016  RH  009%=      5-min Rain = 0
KDC1 242125Z 21002KT 35/M03 A2993 RMK A01 T03531031  RH  009%=      5-min Rain = 0
KDC1 242126Z 21004KT 35/M02 A2993 RMK A01 T03541019  RH  009%=      5-min Rain = 0
KDC1 242127Z 23003KT 36/M00 A2993 RMK A01 T03561002  RH  010%=      5-min Rain = 0
KDC1 242128Z 19003KT 36/01 A2993 RMK A01 T03590009  RH  011%=      5-min Rain = 0
KDC1 242129Z 22004KT 36/M01 A2993 RMK A01 T03591005  RH  010%=      5-min Rain = 0
KDC1 242130Z 21007KT 36/M02 A2993 RMK A01 T03581019  RH  009%=      5-min Rain = 0
KDC1 242131Z 20009KT 36/M01 A2993 RMK A01 T03581013  RH  009%=      5-min Rain = 0
KDC1 242132Z 18005G11KT 36/M02 A2993 RMK A01 T03561022  RH  009%=      5-min Rain = 0
KDC1 242133Z 19005KT 35/00 A2993 RMK A01 T03530001  RH  011%=      5-min Rain = 0
KDC1 242134Z 18004KT 35/M01 A2993 RMK A01 T03491014  RH  010%=      5-min Rain = 0
KDC1 242135Z 16004KT 35/04 A2993 RMK A01 T03480041  RH  015%=      5-min Rain = 0
KDC1 242136Z 16006KT 35/10 A2993 RMK A01 T03460095  RH  022%=      5-min Rain = 0
KDC1 242137Z 14005KT 34/01 A2993 RMK A01 T03440011  RH  012%=      5-min Rain = 0
KDC1 242138Z 16010KT 35/06 A2993 RMK A01 T03450056  RH  017%=      5-min Rain = 0
KDC1 242139Z 16007KT 34/06 A2993 RMK A01 T03420063  RH  018%=      5-min Rain = 0
KDC1 242140Z 14007KT 34/07 A2993 RMK A01 T03400071  RH  019%=      5-min Rain = 0
KDC1 242141Z 14006KT 34/04 A2993 RMK A01 T03390037  RH  015%=      5-min Rain = 0
KDC1 242142Z 12005KT 34/03 A2993 RMK A01 T03400033  RH  015%=      5-min Rain = 0
KDC1 242143Z 12003KT 34/M02 A2993 RMK A01 T03421021  RH  010%=      5-min Rain = 0
KDC1 242144Z 17003KT 35/M02 A2993 RMK A01 T03451020  RH  010%=      5-min Rain = 0
KDC1 242145Z 18001KT 35/M01 A2993 RMK A01 T03461012  RH  010%=      5-min Rain = 0
KDC1 242146Z 16005KT 35/M00 A2993 RMK A01 T03471001  RH  011%=      5-min Rain = 0
KDC1 242147Z 16007KT 35/03 A2992 RMK A01 T03480034  RH  014%=      5-min Rain = 0
KDC1 242148Z 19006KT 35/04 A2992 RMK A01 T03450035  RH  014%=      5-min Rain = 0
KDC1 242149Z 20007G13KT 35/M01 A2992 RMK A01 T03471008  RH  011%=      5-min Rain = 0
KDC1 242150Z 21007KT 35/M03 A2992 RMK A01 T03511028  RH  009%=      5-min Rain = 0
KDC1 242151Z 22006KT 35/M04 A2992 RMK A01 T03521037  RH  008%=      5-min Rain = 0
KDC1 242152Z 20003KT 35/M04 A2992 RMK A01 T03521039  RH  008%=      5-min Rain = 0
KDC1 242153Z 20002KT 35/M04 A2992 RMK A01 T03531036  RH  008%=      5-min Rain = 0
KDC1 242154Z 16005KT 35/M01 A2992 RMK A01 T03541007  RH  010%=      5-min Rain = 0
KDC1 242155Z 15005KT 35/04 A2992 RMK A01 T03540041  RH  014%=      5-min Rain = 0
KDC1 242156Z 16008KT 35/06 A2992 RMK A01 T03520057  RH  016%=      5-min Rain = 0
KDC1 242157Z 13003KT 35/01 A2992 RMK A01 T03510009  RH  012%=      5-min Rain = 0
KDC1 242158Z 25007G18KT 35/00 A2992 RMK A01 T03510004  RH  011%=      5-min Rain = 0
KDC1 242159Z 19006KT 35/M02 A2992 RMK A01 T03521016  RH  010%=      5-min Rain = 0
KDC1 242200Z 16002KT 35/M03 A2992 RMK A01 T03531034  RH  008%=      5-min Rain = 0
KDC1 242201Z 02001KT 35/00 A2992 RMK A01 T03540001  RH  011%=      5-min Rain = 0
KDC1 242202Z 30001KT 36/M02 A2991 RMK A01 T03551016  RH  009%=      5-min Rain = 0
KDC1 242203Z 16003G8KT 36/M03 A2991 RMK A01 T03561025  RH  009%=      5-min Rain = 0
KDC1 242204Z 19011G17KT 36/M01 A2991 RMK A01 T03561009  RH  010%=      5-min Rain = 0
KDC1 242205Z 24014KT 36/M01 A2991 RMK A01 T03561011  RH  010%=      5-min Rain = 0
KDC1 242206Z 25008KT 36/M03 A2991 RMK A01 T03551025  RH  009%=      5-min Rain = 0
KDC1 242207Z 24008KT 35/M03 A2991 RMK A01 T03541031  RH  008%=      5-min Rain = 0
KDC1 242208Z 20006G11KT 36/M02 A2991 RMK A01 T03551015  RH  009%=      5-min Rain = 0
KDC1 242209Z 21006G11KT 36/M03 A2991 RMK A01 T03561025  RH  009%=      5-min Rain = 0
KDC1 242210Z 19004KT 36/M03 A2991 RMK A01 T03561032  RH  008%=      5-min Rain = 0
KDC1 242211Z 21005KT 36/M02 A2991 RMK A01 T03571022  RH  009%=      5-min Rain = 0
KDC1 242212Z 18005KT 36/M01 A2991 RMK A01 T03561010  RH  010%=      5-min Rain = 0
KDC1 242213Z 21004G9KT 36/00 A2991 RMK A01 T03560001  RH  011%=      5-min Rain = 0
KDC1 242214Z 22005KT 36/M03 A2991 RMK A01 T03551028  RH  009%=      5-min Rain = 0
KDC1 242215Z 25002KT 36/M02 A2991 RMK A01 T03581023  RH  009%=      5-min Rain = 0
KDC1 242216Z 25003KT 36/00 A2991 RMK A01 T03620001  RH  010%=      5-min Rain = 0
KDC1 242217Z 26004KT 36/M01 A2991 RMK A01 T03641013  RH  009%=      5-min Rain = 0
KDC1 242218Z 25003KT 36/M02 A299 RMK A01 T03631022  RH  009%=      5-min Rain = 0
KDC1 242219Z 25003KT 36/M01 A299 RMK A01 T03631005  RH  010%=      5-min Rain = 0
KDC1 242220Z 18005KT 37/04 A2991 RMK A01 T03650043  RH  014%=      5-min Rain = 0
KDC1 242221Z 21007KT 36/02 A2991 RMK A01 T03600021  RH  012%=      5-min Rain = 0
KDC1 242222Z 22008KT 36/M02 A299 RMK A01 T03581015  RH  009%=      5-min Rain = 0
KDC1 242223Z 23008KT 36/M03 A299 RMK A01 T03581033  RH  008%=      5-min Rain = 0
KDC1 242224Z 23005KT 36/M03 A299 RMK A01 T03581034  RH  008%=      5-min Rain = 0
KDC1 242225Z 25006KT 36/M03 A299 RMK A01 T03601031  RH  008%=      5-min Rain = 0
KDC1 242226Z 23004KT 36/M03 A299 RMK A01 T03591033  RH  008%=      5-min Rain = 0
KDC1 242227Z 19005KT 36/M01 A299 RMK A01 T03591012  RH  009%=      5-min Rain = 0
KDC1 242228Z 15009KT 36/01 A299 RMK A01 T03570013  RH  012%=      5-min Rain = 0
KDC1 242229Z 17008KT 35/03 A299 RMK A01 T03520029  RH  013%=      5-min Rain = 0
KDC1 242230Z 20005KT 35/M01 A299 RMK A01 T03481007  RH  010%=      5-min Rain = 0
KDC1 242231Z 15010KT 35/03 A299 RMK A01 T03490026  RH  013%=      5-min Rain = 0
KDC1 242232Z 16011KT 35/03 A299 RMK A01 T03470025  RH  013%=      5-min Rain = 0
KDC1 242233Z 16007KT 35/01 A299 RMK A01 T03450007  RH  012%=      5-min Rain = 0
KDC1 242234Z 14009KT 35/02 A299 RMK A01 T03450021  RH  013%=      5-min Rain = 0
KDC1 242235Z 15010KT 34/02 A299 RMK A01 T03430024  RH  013%=      5-min Rain = 0
KDC1 242236Z 15010KT 34/04 A299 RMK A01 T03410036  RH  015%=      5-min Rain = 0
KDC1 242237Z 17008KT 34/04 A299 RMK A01 T03390041  RH  016%=      5-min Rain = 0
KDC1 242238Z 17009KT 34/M00 A299 RMK A01 T03391003  RH  011%=      5-min Rain = 0
KDC1 242239Z 17008KT 34/02 A299 RMK A01 T03420015  RH  013%=      5-min Rain = 0
KDC1 242240Z 18007KT 34/02 A299 RMK A01 T03440019  RH  013%=      5-min Rain = 0
KDC1 242241Z 17006KT 34/03 A299 RMK A01 T03440032  RH  014%=      5-min Rain = 0
KDC1 242242Z 16009KT 34/04 A299 RMK A01 T03420037  RH  015%=      5-min Rain = 0
KDC1 242243Z 17005KT 34/04 A299 RMK A01 T03400043  RH  016%=      5-min Rain = 0
KDC1 242244Z 18007KT 34/00 A299 RMK A01 T03410003  RH  012%=      5-min Rain = 0
KDC1 242245Z 18008KT 35/M00 A299 RMK A01 T03451003  RH  011%=      5-min Rain = 0
KDC1 242246Z 18006KT 35/M02 A299 RMK A01 T03461024  RH  009%=      5-min Rain = 0
KDC1 242247Z 18007KT 35/M02 A299 RMK A01 T03471016  RH  010%=      5-min Rain = 0
KDC1 242248Z 18007KT 35/M02 A299 RMK A01 T03491019  RH  009%=      5-min Rain = 0
KDC1 242249Z 20004G9KT 35/M00 A299 RMK A01 T03501003  RH  011%=      5-min Rain = 0
KDC1 242250Z 25006KT 35/M02 A299 RMK A01 T03521024  RH  009%=      5-min Rain = 0
KDC1 242251Z 25005KT 36/M03 A299 RMK A01 T03561031  RH  008%=      5-min Rain = 0
KDC1 242252Z 22003KT 36/M03 A299 RMK A01 T03571028  RH  008%=      5-min Rain = 0
KDC1 242253Z 24005KT 36/M02 A299 RMK A01 T03581024  RH  009%=      5-min Rain = 0
KDC1 242254Z 23005KT 36/M02 A299 RMK A01 T03601022  RH  009%=      5-min Rain = 0
KDC1 242255Z 21005KT 36/M04 A299 RMK A01 T03621035  RH  008%=      5-min Rain = 0
KDC1 242256Z 22007KT 36/M03 A299 RMK A01 T03621030  RH  008%=      5-min Rain = 0
KDC1 242257Z 24008KT 36/M03 A299 RMK A01 T03621025  RH  008%=      5-min Rain = 0
KDC1 242258Z 23008KT 36/M02 A299 RMK A01 T03611019  RH  009%=      5-min Rain = 0
KDC1 242259Z 21004KT 36/M01 A299 RMK A01 T03611005  RH  010%=      5-min Rain = 0
KDC1 242300Z 23006KT 36/M02 A2989 RMK A01 T03621016  RH  009%=      5-min Rain = 0
KDC1 242301Z 23007KT 36/M04 A2989 RMK A01 T03621035  RH  008%=      5-min Rain = 0
KDC1 242302Z 22004KT 36/M04 A2989 RMK A01 T03601042  RH  008%=      5-min Rain = 0
KDC1 242303Z 24011G17KT 36/M03 A2989 RMK A01 T03601025  RH  009%=      5-min Rain = 0
KDC1 242304Z 23008KT 36/M01 A2989 RMK A01 T03601009  RH  010%=      5-min Rain = 0
KDC1 242305Z 23009KT 36/M01 A2989 RMK A01 T03591014  RH  009%=      5-min Rain = 0
KDC1 242306Z 22007KT 36/M01 A2989 RMK A01 T03581014  RH  009%=      5-min Rain = 0
KDC1 242307Z 22010KT 36/M02 A2989 RMK A01 T03591023  RH  009%=      5-min Rain = 0
KDC1 242308Z 23009KT 36/M04 A2989 RMK A01 T03591039  RH  008%=      5-min Rain = 0
KDC1 242309Z 22008KT 36/M05 A2989 RMK A01 T03581045  RH  007%=      5-min Rain = 0
KDC1 242310Z 23005KT 36/M05 A2989 RMK A01 T03571048  RH  007%=      5-min Rain = 0
KDC1 242311Z 24005KT 36/M05 A2989 RMK A01 T03571048  RH  007%=      5-min Rain = 0
KDC1 242312Z 24007KT 36/M02 A2989 RMK A01 T03581020  RH  009%=      5-min Rain = 0
KDC1 242313Z 25008KT 36/01 A2989 RMK A01 T03580005  RH  011%=      5-min Rain = 0
KDC1 242314Z 26009KT 36/01 A2989 RMK A01 T03550014  RH  012%=      5-min Rain = 0
KDC1 242315Z 26008KT 35/01 A2989 RMK A01 T03520007  RH  011%=      5-min Rain = 0
KDC1 242316Z 26010KT 35/M02 A2989 RMK A01 T03531017  RH  009%=      5-min Rain = 0
KDC1 242317Z 25007KT 35/M03 A2989 RMK A01 T03541026  RH  009%=      5-min Rain = 0
KDC1 242318Z 24009KT 36/M04 A2989 RMK A01 T03551041  RH  008%=      5-min Rain = 0
KDC1 242319Z 24010KT 36/M02 A2989 RMK A01 T03551018  RH  009%=      5-min Rain = 0
KDC1 242320Z 24010KT 36/M01 A2989 RMK A01 T03551006  RH  010%=      5-min Rain = 0
KDC1 242321Z 24011KT 35/01 A2989 RMK A01 T03520010  RH  012%=      5-min Rain = 0
KDC1 242322Z 26013KT 35/01 A2989 RMK A01 T03500006  RH  011%=      5-min Rain = 0
KDC1 242323Z 26012KT 35/M02 A2989 RMK A01 T03501023  RH  009%=      5-min Rain = 0
KDC1 242324Z 26014KT 35/M03 A2989 RMK A01 T03511029  RH  009%=      5-min Rain = 0
KDC1 242325Z 24010KT 35/M04 A2989 RMK A01 T03511039  RH  008%=      5-min Rain = 0
KDC1 242326Z 24005KT 35/M04 A2989 RMK A01 T03521039  RH  008%=      5-min Rain = 0
KDC1 242327Z 25006KT 35/M03 A2989 RMK A01 T03541032  RH  008%=      5-min Rain = 0
KDC1 242328Z 24007KT 35/M03 A2989 RMK A01 T03541032  RH  008%=      5-min Rain = 0
KDC1 242329Z 24007KT 35/M02 A2989 RMK A01 T03541015  RH  009%=      5-min Rain = 0
KDC1 242330Z 24008KT 35/00 A2989 RMK A01 T03540003  RH  011%=      5-min Rain = 0
KDC1 242331Z 24008KT 35/02 A2989 RMK A01 T03530015  RH  012%=      5-min Rain = 0
KDC1 242332Z 24005KT 35/02 A2989 RMK A01 T03510017  RH  012%=      5-min Rain = 0
KDC1 242333Z 22004KT 35/02 A2989 RMK A01 T03500016  RH  012%=      5-min Rain = 0
KDC1 242334Z 21006KT 35/M01 A2989 RMK A01 T03521008  RH  010%=      5-min Rain = 0
KDC1 242335Z 22005KT 35/M03 A2988 RMK A01 T03541034  RH  008%=      5-min Rain = 0
KDC1 242336Z 20006KT 35/M03 A2988 RMK A01 T03541033  RH  008%=      5-min Rain = 0
KDC1 242337Z 18005KT 36/M03 A2989 RMK A01 T03551026  RH  009%=      5-min Rain = 0
KDC1 242338Z 20007KT 35/M03 A2988 RMK A01 T03541026  RH  009%=      5-min Rain = 0
KDC1 242339Z 19007KT 35/M05 A2988 RMK A01 T03531050  RH  007%=      5-min Rain = 0
KDC1 242340Z 19007KT 35/M06 A2988 RMK A01 T03521055  RH  007%=      5-min Rain = 0
KDC1 242341Z 19006KT 35/M05 A2988 RMK A01 T03521052  RH  007%=      5-min Rain = 0
KDC1 242342Z 19005KT 35/M04 A2988 RMK A01 T03511037  RH  008%=      5-min Rain = 0
KDC1 242343Z 21004KT 35/M04 A2988 RMK A01 T03511042  RH  008%=      5-min Rain = 0
KDC1 242344Z 24005KT 35/M04 A2988 RMK A01 T03531040  RH  008%=      5-min Rain = 0
KDC1 242345Z 24008G14KT 36/M03 A2988 RMK A01 T03551027  RH  009%=      5-min Rain = 0
KDC1 242346Z 24010KT 36/M00 A2988 RMK A01 T03551002  RH  010%=      5-min Rain = 0
KDC1 242347Z 24010KT 35/M02 A2988 RMK A01 T03521018  RH  009%=      5-min Rain = 0
KDC1 242348Z 23007KT 35/M01 A2988 RMK A01 T03501012  RH  010%=      5-min Rain = 0
KDC1 242349Z 24007KT 35/M02 A2988 RMK A01 T03501016  RH  010%=      5-min Rain = 0
KDC1 242350Z 23006KT 35/M02 A2988 RMK A01 T03491021  RH  009%=      5-min Rain = 0
KDC1 242351Z 24006KT 35/M02 A2988 RMK A01 T03501023  RH  009%=      5-min Rain = 0
KDC1 242352Z 24005KT 35/M04 A2988 RMK A01 T03521037  RH  008%=      5-min Rain = 0
KDC1 242353Z 24005KT 35/M03 A2988 RMK A01 T03531034  RH  008%=      5-min Rain = 0
KDC1 242354Z 23004KT 35/M02 A2988 RMK A01 T03531017  RH  009%=      5-min Rain = 0
KDC1 242355Z 25006KT 35/M01 A2988 RMK A01 T03531007  RH  010%=      5-min Rain = 0
KDC1 242356Z 24006KT 35/M00 A2988 RMK A01 T03531001  RH  011%=      5-min Rain = 0
KDC1 242357Z 24006KT 35/M04 A2988 RMK A01 T03531044  RH  008%=      5-min Rain = 0
KDC1 242358Z 25005KT 35/M04 A2988 RMK A01 T03531042  RH  008%=      5-min Rain = 0
KDC1 242359Z 25004KT 35/M04 A2988 RMK A01 T03541039  RH  008%=      5-min Rain = 0
KDC1 250000Z 22004KT 36/M02 A2988 RMK A01 T03561024  RH  009%=      5-min Rain = 0
KDC1 250001Z 24004KT 36/M02 A2988 RMK A01 T03561015  RH  009%=      5-min Rain = 0
KDC1 250002Z 22005KT 36/M01 A2988 RMK A01 T03561011  RH  010%=      5-min Rain = 0
KDC1 250003Z 23007KT 35/M03 A2988 RMK A01 T03541026  RH  009%=      5-min Rain = 0
KDC1 250004Z 24006KT 35/M02 A2988 RMK A01 T03541015  RH  010%=      5-min Rain = 0
KDC1 250005Z 22009G14KT 35/M01 A2988 RMK A01 T03521009  RH  010%=      5-min Rain = 0
KDC1 250006Z 23007G12KT 35/M03 A2988 RMK A01 T03521027  RH  009%=      5-min Rain = 0
KDC1 250007Z 22006KT 35/M03 A2988 RMK A01 T03511031  RH  009%=      5-min Rain = 0
KDC1 250008Z 23008KT 35/M03 A2988 RMK A01 T03511034  RH  008%=      5-min Rain = 0
KDC1 250009Z 23008KT 35/M03 A2988 RMK A01 T03511026  RH  009%=      5-min Rain = 0
KDC1 250010Z 23007KT 35/M03 A2988 RMK A01 T03511032  RH  008%=      5-min Rain = 0
KDC1 250011Z 23006KT 35/M04 A2988 RMK A01 T03521035  RH  008%=      5-min Rain = 0
KDC1 250012Z 24006KT 35/M02 A2988 RMK A01 T03521023  RH  009%=      5-min Rain = 0
KDC1 250013Z 24010G15KT 35/00 A2988 RMK A01 T03510002  RH  011%=      5-min Rain = 0
KDC1 250014Z 25010KT 35/01 A2988 RMK A01 T03470006  RH  012%=      5-min Rain = 0
KDC1 250015Z 24008KT 34/M00 A2988 RMK A01 T03441003  RH  011%=      5-min Rain = 0
KDC1 250016Z 23005KT 34/M02 A2988 RMK A01 T03431019  RH  010%=      5-min Rain = 0
KDC1 250017Z 23004KT 35/M03 A2988 RMK A01 T03451025  RH  009%=      5-min Rain = 0
KDC1 250018Z 24006KT 35/M03 A2988 RMK A01 T03471027  RH  009%=      5-min Rain = 0
KDC1 250019Z 25011KT 35/M01 A2988 RMK A01 T03481013  RH  010%=      5-min Rain = 0
KDC1 250020Z 25011KT 35/M01 A2988 RMK A01 T03471005  RH  011%=      5-min Rain = 0
KDC1 250021Z 25009KT 35/01 A2988 RMK A01 T03450008  RH  012%=      5-min Rain = 0
KDC1 250022Z 25008KT 34/02 A2988 RMK A01 T03420019  RH  013%=      5-min Rain = 0
KDC1 250023Z 25007KT 34/02 A2988 RMK A01 T03380016  RH  013%=      5-min Rain = 0
KDC1 250024Z 24011G16KT 34/00 A2988 RMK A01 T03370001  RH  012%=      5-min Rain = 0
KDC1 250025Z 25010KT 34/M02 A2988 RMK A01 T03391017  RH  010%=      5-min Rain = 0
KDC1 250026Z 25008KT 34/M03 A2988 RMK A01 T03431030  RH  009%=      5-min Rain = 0
KDC1 250027Z 25009KT 34/M01 A2988 RMK A01 T03441009  RH  011%=      5-min Rain = 0
KDC1 250028Z 26008KT 34/00 A2988 RMK A01 T03420001  RH  011%=      5-min Rain = 0
KDC1 250029Z 25007KT 34/M00 A2988 RMK A01 T03411002  RH  011%=      5-min Rain = 0
KDC1 250030Z 25007KT 34/M00 A2988 RMK A01 T03411002  RH  011%=      5-min Rain = 0
KDC1 250031Z 25008KT 34/01 A2988 RMK A01 T03410011  RH  012%=      5-min Rain = 0
KDC1 250032Z 26009KT 34/00 A2988 RMK A01 T03410001  RH  012%=      5-min Rain = 0
KDC1 250033Z 25009KT 34/01 A2988 RMK A01 T03410007  RH  012%=      5-min Rain = 0
KDC1 250034Z 25010KT 34/02 A2988 RMK A01 T03400017  RH  013%=      5-min Rain = 0
KDC1 250035Z 25011KT 34/M01 A2988 RMK A01 T03381008  RH  011%=      5-min Rain = 0
KDC1 250036Z 24007KT 34/M02 A2988 RMK A01 T03401019  RH  010%=      5-min Rain = 0
KDC1 250037Z 24005KT 34/M00 A2988 RMK A01 T03411004  RH  011%=      5-min Rain = 0
KDC1 250038Z 22001KT 34/00 A2988 RMK A01 T03410002  RH  012%=      5-min Rain = 0
KDC1 250039Z 25002KT 34/00 A2988 RMK A01 T03410003  RH  012%=      5-min Rain = 0
KDC1 250040Z 25005KT 34/M01 A2988 RMK A01 T03411005  RH  011%=      5-min Rain = 0
KDC1 250041Z 25005KT 34/M03 A2988 RMK A01 T03431034  RH  009%=      5-min Rain = 0
KDC1 250042Z 26004KT 35/M04 A2988 RMK A01 T03461041  RH  008%=      5-min Rain = 0
KDC1 250043Z 26006KT 35/M03 A2988 RMK A01 T03481029  RH  009%=      5-min Rain = 0
KDC1 250044Z 25005KT 35/M03 A2988 RMK A01 T03481031  RH  009%=      5-min Rain = 0
KDC1 250045Z 24004KT 35/M03 A2988 RMK A01 T03481025  RH  009%=      5-min Rain = 0
KDC1 250046Z 25005KT 35/M02 A2988 RMK A01 T03481020  RH  010%=      5-min Rain = 0
KDC1 250047Z 26007KT 35/M01 A2988 RMK A01 T03471010  RH  010%=      5-min Rain = 0
KDC1 250048Z 25007KT 35/00 A2988 RMK A01 T03460001  RH  011%=      5-min Rain = 0
KDC1 250049Z 24007KT 34/01 A2988 RMK A01 T03440013  RH  012%=      5-min Rain = 0
KDC1 250050Z 24007KT 34/01 A2988 RMK A01 T03410012  RH  012%=      5-min Rain = 0
KDC1 250051Z 25009KT 34/00 A2988 RMK A01 T03390001  RH  012%=      5-min Rain = 0
KDC1 250052Z 26010KT 34/00 A2988 RMK A01 T03380001  RH  012%=      5-min Rain = 0
KDC1 250053Z 26012KT 34/M00 A2988 RMK A01 T03371001  RH  012%=      5-min Rain = 0
KDC1 250054Z 26013KT 34/M01 A2988 RMK A01 T03361010  RH  011%=      5-min Rain = 0
KDC1 250055Z 26011KT 34/M01 A2988 RMK A01 T03351010  RH  011%=      5-min Rain = 0
KDC1 250056Z 27012KT 34/M02 A2988 RMK A01 T03351016  RH  010%=      5-min Rain = 0
KDC1 250057Z 27013KT 34/M05 A2988 RMK A01 T03401049  RH  008%=      5-min Rain = 0
KDC1 250058Z 26011KT 34/M05 A2988 RMK A01 T03441045  RH  008%=      5-min Rain = 0
KDC1 250059Z 26009KT 35/M03 A2988 RMK A01 T03451034  RH  009%=      5-min Rain = 0
KDC1 250100Z 26009KT 34/M03 A2988 RMK A01 T03441030  RH  009%=      5-min Rain = 0
KDC1 250101Z 27009KT 34/M02 A2988 RMK A01 T03421020  RH  010%=      5-min Rain = 0
KDC1 250102Z 26008KT 34/M02 A2988 RMK A01 T03401016  RH  010%=      5-min Rain = 0
KDC1 250103Z 26008KT 34/M02 A2988 RMK A01 T03401015  RH  010%=      5-min Rain = 0
KDC1 250104Z 26008KT 34/M01 A2989 RMK A01 T03391012  RH  011%=      5-min Rain = 0
KDC1 250105Z 25007KT 34/M00 A2989 RMK A01 T03381004  RH  011%=      5-min Rain = 0
KDC1 250106Z 25008KT 34/01 A2989 RMK A01 T03350011  RH  013%=      5-min Rain = 0
KDC1 250107Z 25007KT 33/01 A2989 RMK A01 T03320014  RH  013%=      5-min Rain = 0
KDC1 250108Z 24008KT 33/01 A2989 RMK A01 T03300014  RH  013%=      5-min Rain = 0
KDC1 250109Z 24009KT 33/00 A2989 RMK A01 T03290004  RH  013%=      5-min Rain = 0
KDC1 250110Z 24007KT 33/M01 A2989 RMK A01 T03291012  RH  011%=      5-min Rain = 0
KDC1 250111Z 25008KT 33/M02 A2989 RMK A01 T03321017  RH  011%=      5-min Rain = 0
KDC1 250112Z 25008KT 33/M03 A2989 RMK A01 T03341028  RH  010%=      5-min Rain = 0
KDC1 250113Z 25007KT 34/M03 A2989 RMK A01 T03361030  RH  009%=      5-min Rain = 0
KDC1 250114Z 26006KT 34/M03 A2989 RMK A01 T03371025  RH  010%=      5-min Rain = 0
KDC1 250115Z 26007KT 34/M02 A2989 RMK A01 T03371016  RH  010%=      5-min Rain = 0
KDC1 250116Z 27009KT 34/M01 A2989 RMK A01 T03361011  RH  011%=      5-min Rain = 0
KDC1 250117Z 26006KT 33/M01 A2989 RMK A01 T03341012  RH  011%=      5-min Rain = 0
KDC1 250118Z 26007KT 33/M01 A2989 RMK A01 T03331008  RH  011%=      5-min Rain = 0
KDC1 250119Z 27009KT 33/M02 A2989 RMK A01 T03331023  RH  010%=      5-min Rain = 0
KDC1 250120Z 28009KT 33/M02 A2989 RMK A01 T03341024  RH  010%=      5-min Rain = 0
KDC1 250121Z 28007KT 34/M03 A2989 RMK A01 T03351032  RH  009%=      5-min Rain = 0
KDC1 250122Z 29008KT 34/M04 A2989 RMK A01 T03361036  RH  009%=      5-min Rain = 0
KDC1 250123Z 29009KT 34/M04 A2989 RMK A01 T03361039  RH  009%=      5-min Rain = 0
KDC1 250124Z 28012KT 34/M04 A2989 RMK A01 T03371042  RH  009%=      5-min Rain = 0
KDC1 250125Z 26009KT 34/M04 A2989 RMK A01 T03371041  RH  009%=      5-min Rain = 0
KDC1 250126Z 26008KT 33/M01 A2989 RMK A01 T03341008  RH  011%=      5-min Rain = 0
KDC1 250127Z 27008KT 33/M01 A2989 RMK A01 T03291011  RH  011%=      5-min Rain = 0
KDC1 250128Z 27008KT 33/M02 A2989 RMK A01 T03271015  RH  011%=      5-min Rain = 0
KDC1 250129Z 27008KT 33/M01 A2989 RMK A01 T03261007  RH  012%=      5-min Rain = 0
KDC1 250130Z 26007KT 33/M00 A2989 RMK A01 T03251004  RH  012%=      5-min Rain = 0
KDC1 250131Z 26007KT 32/M01 A2989 RMK A01 T03241010  RH  012%=      5-min Rain = 0
KDC1 250132Z 26008KT 32/M00 A2989 RMK A01 T03241003  RH  012%=      5-min Rain = 0
KDC1 250133Z 26008KT 32/00 A2989 RMK A01 T032200-0  RH  013%=      5-min Rain = 0
KDC1 250134Z 26009KT 32/M01 A2989 RMK A01 T03211007  RH  012%=      5-min Rain = 0
KDC1 250135Z 26009KT 32/M01 A2989 RMK A01 T03211008  RH  012%=      5-min Rain = 0
KDC1 250136Z 26009KT 32/M00 A2989 RMK A01 T03211001  RH  013%=      5-min Rain = 0
KDC1 250137Z 26008KT 32/00 A2989 RMK A01 T031900-0  RH  013%=      5-min Rain = 0
KDC1 250138Z 27009KT 32/M00 A2989 RMK A01 T03171004  RH  013%=      5-min Rain = 0
KDC1 250139Z 27008KT 32/M01 A2989 RMK A01 T03171006  RH  013%=      5-min Rain = 0
KDC1 250140Z 27007KT 32/M00 A2989 RMK A01 T03161003  RH  013%=      5-min Rain = 0
KDC1 250141Z 27009KT 32/M01 A2989 RMK A01 T03151008  RH  012%=      5-min Rain = 0
KDC1 250142Z 27011KT 32/M03 A2989 RMK A01 T03151029  RH  011%=      5-min Rain = 0
KDC1 250143Z 27011KT 32/M04 A2989 RMK A01 T03191038  RH  010%=      5-min Rain = 0
KDC1 250144Z 27010KT 32/M04 A2989 RMK A01 T03211036  RH  010%=      5-min Rain = 0
KDC1 250145Z 27011KT 32/M04 A2989 RMK A01 T03211036  RH  010%=      5-min Rain = 0
KDC1 250146Z 28012KT 32/M04 A2989 RMK A01 T03211037  RH  010%=      5-min Rain = 0
KDC1 250147Z 28011KT 32/M04 A299 RMK A01 T03211038  RH  010%=      5-min Rain = 0
KDC1 250148Z 28011KT 32/M04 A299 RMK A01 T03211037  RH  010%=      5-min Rain = 0
KDC1 250149Z 28011KT 32/M04 A299 RMK A01 T03201036  RH  010%=      5-min Rain = 0
KDC1 250150Z 28011KT 32/M04 A299 RMK A01 T03191036  RH  010%=      5-min Rain = 0
KDC1 250151Z 28011KT 32/M04 A299 RMK A01 T03181039  RH  010%=      5-min Rain = 0
KDC1 250152Z 27011KT 32/M04 A299 RMK A01 T03181040  RH  010%=      5-min Rain = 0
KDC1 250153Z 27010KT 32/M04 A299 RMK A01 T03181040  RH  010%=      5-min Rain = 0
KDC1 250154Z 27010KT 32/M04 A299 RMK A01 T03171041  RH  010%=      5-min Rain = 0
KDC1 250155Z 28010KT 32/M04 A299 RMK A01 T03171042  RH  010%=      5-min Rain = 0
KDC1 250156Z 28010KT 32/M04 A299 RMK A01 T03171040  RH  010%=      5-min Rain = 0
KDC1 250157Z 28009KT 32/M04 A299 RMK A01 T03151040  RH  010%=      5-min Rain = 0
KDC1 250158Z 28010KT 31/M04 A299 RMK A01 T03141039  RH  010%=      5-min Rain = 0
KDC1 250159Z 27009KT 31/M04 A299 RMK A01 T03121039  RH  010%=      5-min Rain = 0
KDC1 250200Z 27010KT 31/M04 A299 RMK A01 T03111041  RH  010%=      5-min Rain = 0
KDC1 250201Z 27009KT 31/M04 A299 RMK A01 T03111040  RH  010%=      5-min Rain = 0
KDC1 250202Z 27009KT 31/M04 A299 RMK A01 T03101040  RH  010%=      5-min Rain = 0
KDC1 250203Z 27008KT 31/M04 A299 RMK A01 T03081039  RH  010%=      5-min Rain = 0
KDC1 250204Z 27009KT 31/M04 A299 RMK A01 T03071039  RH  010%=      5-min Rain = 0
KDC1 250205Z 27009KT 31/M04 A299 RMK A01 T03071042  RH  010%=      5-min Rain = 0
KDC1 250206Z 27008KT 31/M04 A299 RMK A01 T03071042  RH  010%=      5-min Rain = 0
KDC1 250207Z 27008KT 31/M04 A299 RMK A01 T03071041  RH  010%=      5-min Rain = 0
KDC1 250208Z 27009KT 31/M04 A299 RMK A01 T03051041  RH  010%=      5-min Rain = 0
KDC1 250209Z 27009KT 30/M04 A299 RMK A01 T03031041  RH  010%=      5-min Rain = 0
KDC1 250210Z 27008KT 30/M04 A299 RMK A01 T03021042  RH  010%=      5-min Rain = 0
KDC1 250211Z 27008KT 30/M04 A299 RMK A01 T03011042  RH  010%=      5-min Rain = 0
KDC1 250212Z 27008KT 30/M04 A299 RMK A01 T03011042  RH  011%=      5-min Rain = 0
KDC1 250213Z 27009KT 30/M04 A299 RMK A01 T02991041  RH  011%=      5-min Rain = 0
KDC1 250214Z 27009KT 30/M04 A299 RMK A01 T02971040  RH  011%=      5-min Rain = 0
KDC1 250215Z 28009KT 30/M04 A299 RMK A01 T02951040  RH  011%=      5-min Rain = 0
KDC1 250216Z 28009KT 29/M04 A299 RMK A01 T02931040  RH  011%=      5-min Rain = 0
KDC1 250217Z 28009KT 29/M04 A299 RMK A01 T02911038  RH  011%=      5-min Rain = 0
KDC1 250218Z 28009KT 29/M04 A299 RMK A01 T02891039  RH  012%=      5-min Rain = 0
KDC1 250219Z 28009KT 29/M04 A299 RMK A01 T02881039  RH  012%=      5-min Rain = 0
KDC1 250220Z 29009KT 29/M04 A299 RMK A01 T02871039  RH  012%=      5-min Rain = 0
KDC1 250221Z 29008KT 29/M04 A299 RMK A01 T02861038  RH  012%=      5-min Rain = 0
KDC1 250222Z 28007KT 28/M04 A299 RMK A01 T02841036  RH  012%=      5-min Rain = 0
KDC1 250223Z 28008KT 28/M04 A299 RMK A01 T02811036  RH  012%=      5-min Rain = 0
KDC1 250224Z 28008KT 28/M04 A299 RMK A01 T02791036  RH  012%=      5-min Rain = 0
KDC1 250225Z 29008KT 28/M04 A299 RMK A01 T02771036  RH  013%=      5-min Rain = 0
KDC1 250226Z 29008KT 28/M04 A299 RMK A01 T02751035  RH  013%=      5-min Rain = 0
KDC1 250227Z 29008KT 27/M03 A299 RMK A01 T02731034  RH  013%=      5-min Rain = 0
KDC1 250228Z 29008KT 27/M03 A299 RMK A01 T02711033  RH  013%=      5-min Rain = 0
KDC1 250229Z 29008KT 27/M03 A299 RMK A01 T02691032  RH  014%=      5-min Rain = 0
KDC1 250230Z 29008KT 27/M03 A299 RMK A01 T02661032  RH  014%=      5-min Rain = 0
KDC1 250231Z 29008KT 26/M03 A299 RMK A01 T02641031  RH  014%=      5-min Rain = 0
KDC1 250232Z 29008KT 26/M03 A299 RMK A01 T02611031  RH  014%=      5-min Rain = 0
KDC1 250233Z 29008KT 26/M03 A299 RMK A01 T02591031  RH  015%=      5-min Rain = 0
KDC1 250234Z 29008KT 26/M03 A299 RMK A01 T02571031  RH  015%=      5-min Rain = 0
KDC1 250235Z 28008KT 26/M03 A299 RMK A01 T02551031  RH  015%=      5-min Rain = 0
KDC1 250236Z 28008KT 25/M03 A299 RMK A01 T02541031  RH  015%=      5-min Rain = 0
KDC1 250237Z 28007KT 25/M03 A299 RMK A01 T02531033  RH  015%=      5-min Rain = 0
KDC1 250238Z 28008KT 25/M03 A299 RMK A01 T02521033  RH  015%=      5-min Rain = 0
KDC1 250239Z 28008KT 25/M03 A299 RMK A01 T02521033  RH  015%=      5-min Rain = 0
KDC1 250240Z 29008KT 25/M03 A299 RMK A01 T02521033  RH  015%=      5-min Rain = 0
KDC1 250241Z 29008KT 25/M03 A299 RMK A01 T02511034  RH  015%=      5-min Rain = 0
KDC1 250242Z 29008KT 25/M04 A299 RMK A01 T02511036  RH  015%=      5-min Rain = 0
KDC1 250243Z 29008KT 25/M04 A299 RMK A01 T02501036  RH  015%=      5-min Rain = 0
KDC1 250244Z 29008KT 25/M04 A299 RMK A01 T02491035  RH  015%=      5-min Rain = 0
KDC1 250245Z 29008KT 25/M04 A299 RMK A01 T02481036  RH  015%=      5-min Rain = 0
KDC1 250246Z 29008KT 25/M04 A299 RMK A01 T02471038  RH  015%=      5-min Rain = 0
KDC1 250247Z 29008KT 25/M04 A299 RMK A01 T02471041  RH  015%=      5-min Rain = 0
KDC1 250248Z 30007KT 25/M04 A299 RMK A01 T02481042  RH  014%=      5-min Rain = 0
KDC1 250249Z 30007KT 25/M04 A299 RMK A01 T02481042  RH  014%=      5-min Rain = 0
KDC1 250250Z 30007KT 25/M04 A299 RMK A01 T02491040  RH  014%=      5-min Rain = 0
KDC1 250251Z 30007KT 25/M04 A299 RMK A01 T02471037  RH  015%=      5-min Rain = 0
KDC1 250252Z 30007KT 25/M04 A299 RMK A01 T02461035  RH  015%=      5-min Rain = 0
KDC1 250253Z 30007KT 25/M03 A299 RMK A01 T02451032  RH  016%=      5-min Rain = 0
KDC1 250254Z 30007KT 25/M03 A299 RMK A01 T02451031  RH  016%=      5-min Rain = 0
KDC1 250255Z 30007KT 25/M03 A299 RMK A01 T02451029  RH  016%=      5-min Rain = 0
KDC1 250256Z 31007KT 25/M03 A299 RMK A01 T02451027  RH  016%=      5-min Rain = 0
KDC1 250257Z 31007KT 25/M03 A299 RMK A01 T02451026  RH  016%=      5-min Rain = 0
KDC1 250258Z 31008KT 25/M03 A299 RMK A01 T02451027  RH  016%=      5-min Rain = 0
KDC1 250259Z 31008KT 25/M03 A299 RMK A01 T02481027  RH  016%=      5-min Rain = 0
KDC1 250300Z 31008KT 25/M03 A299 RMK A01 T02491026  RH  016%=      5-min Rain = 0
KDC1 250301Z 31007KT 25/M02 A299 RMK A01 T02501024  RH  016%=      5-min Rain = 0
KDC1 250302Z 31007KT 25/M02 A299 RMK A01 T02501024  RH  016%=      5-min Rain = 0
KDC1 250303Z 31007KT 25/M02 A299 RMK A01 T02501023  RH  016%=      5-min Rain = 0
KDC1 250304Z 31006KT 25/M02 A299 RMK A01 T02491024  RH  016%=      5-min Rain = 0
KDC1 250305Z 30006KT 25/M03 A299 RMK A01 T02471025  RH  016%=      5-min Rain = 0
KDC1 250306Z 31006KT 25/M02 A299 RMK A01 T02451024  RH  017%=      5-min Rain = 0
KDC1 250307Z 31006KT 24/M02 A299 RMK A01 T02441024  RH  017%=      5-min Rain = 0
KDC1 250308Z 31006KT 24/M03 A299 RMK A01 T02421025  RH  017%=      5-min Rain = 0
KDC1 250309Z 31006KT 24/M03 A299 RMK A01 T02421025  RH  017%=      5-min Rain = 0
KDC1 250310Z 31006KT 24/M02 A299 RMK A01 T02401024  RH  017%=      5-min Rain = 0
KDC1 250311Z 31006KT 24/M02 A299 RMK A01 T02391023  RH  017%=      5-min Rain = 0
KDC1 250312Z 31006KT 24/M02 A299 RMK A01 T02381022  RH  018%=      5-min Rain = 0
KDC1 250313Z 31006KT 24/M02 A299 RMK A01 T02371022  RH  018%=      5-min Rain = 0
KDC1 250314Z 30006KT 24/M02 A299 RMK A01 T02371022  RH  018%=      5-min Rain = 0
KDC1 250315Z 30006KT 24/M02 A299 RMK A01 T02361023  RH  018%=      5-min Rain = 0
KDC1 250316Z 30006KT 24/M02 A299 RMK A01 T02361022  RH  018%=      5-min Rain = 0
KDC1 250317Z 30006KT 24/M02 A299 RMK A01 T02361021  RH  018%=      5-min Rain = 0
KDC1 250318Z 30006KT 24/M02 A299 RMK A01 T02351021  RH  018%=      5-min Rain = 0
KDC1 250319Z 30006KT 24/M02 A299 RMK A01 T02351024  RH  018%=      5-min Rain = 0
KDC1 250320Z 29007KT 24/M03 A299 RMK A01 T02361025  RH  017%=      5-min Rain = 0
KDC1 250321Z 29007KT 24/M03 A299 RMK A01 T02381025  RH  017%=      5-min Rain = 0
KDC1 250322Z 29007KT 24/M02 A299 RMK A01 T02381024  RH  017%=      5-min Rain = 0
KDC1 250323Z 29008KT 24/M02 A299 RMK A01 T02381020  RH  018%=      5-min Rain = 0
KDC1 250324Z 29009KT 24/M03 A299 RMK A01 T02371027  RH  017%=      5-min Rain = 0
KDC1 250325Z 30009KT 24/M03 A299 RMK A01 T02371031  RH  017%=      5-min Rain = 0
KDC1 250326Z 29009KT 24/M03 A299 RMK A01 T02371032  RH  016%=      5-min Rain = 0
KDC1 250327Z 29008KT 24/M03 A299 RMK A01 T02361033  RH  017%=      5-min Rain = 0
KDC1 250328Z 29008KT 23/M03 A299 RMK A01 T02341032  RH  017%=      5-min Rain = 0
KDC1 250329Z 29007KT 23/M03 A299 RMK A01 T02331032  RH  017%=      5-min Rain = 0
KDC1 250330Z 29008KT 23/M03 A299 RMK A01 T02321033  RH  017%=      5-min Rain = 0
KDC1 250331Z 29009KT 23/M03 A299 RMK A01 T02311034  RH  017%=      5-min Rain = 0
KDC1 250332Z 30009KT 23/M04 A299 RMK A01 T02301036  RH  017%=      5-min Rain = 0
KDC1 250333Z 29009KT 23/M04 A299 RMK A01 T02301036  RH  017%=      5-min Rain = 0
KDC1 250334Z 29009KT 23/M04 A299 RMK A01 T02301036  RH  017%=      5-min Rain = 0
KDC1 250335Z 29009KT 23/M04 A299 RMK A01 T02281036  RH  017%=      5-min Rain = 0
KDC1 250336Z 29009KT 23/M04 A2991 RMK A01 T02281036  RH  017%=      5-min Rain = 0
KDC1 250337Z 28009KT 23/M04 A2991 RMK A01 T02281037  RH  017%=      5-min Rain = 0
KDC1 250338Z 29009KT 23/M04 A2991 RMK A01 T02281038  RH  017%=      5-min Rain = 0
KDC1 250339Z 29010KT 23/M04 A2991 RMK A01 T02291040  RH  016%=      5-min Rain = 0
KDC1 250340Z 30010KT 23/M04 A2991 RMK A01 T02301043  RH  016%=      5-min Rain = 0
KDC1 250341Z 29010KT 23/M05 A2991 RMK A01 T02331045  RH  015%=      5-min Rain = 0
KDC1 250342Z 29010KT 24/M04 A2991 RMK A01 T02351044  RH  015%=      5-min Rain = 0
KDC1 250343Z 30010KT 24/M04 A2991 RMK A01 T02361043  RH  015%=      5-min Rain = 0
KDC1 250344Z 30010KT 24/M04 A2991 RMK A01 T02361042  RH  015%=      5-min Rain = 0
KDC1 250345Z 30010KT 24/M04 A2991 RMK A01 T02361042  RH  015%=      5-min Rain = 0
KDC1 250346Z 30010KT 24/M04 A2991 RMK A01 T02371042  RH  015%=      5-min Rain = 0
KDC1 250347Z 30010KT 24/M04 A2991 RMK A01 T02371041  RH  015%=      5-min Rain = 0
KDC1 250348Z 30010KT 24/M04 A2991 RMK A01 T02381040  RH  015%=      5-min Rain = 0
KDC1 250349Z 30009KT 24/M04 A2991 RMK A01 T02381039  RH  016%=      5-min Rain = 0
KDC1 250350Z 29009KT 24/M04 A2991 RMK A01 T02381039  RH  016%=      5-min Rain = 0
KDC1 250351Z 29010KT 24/M04 A2991 RMK A01 T02381037  RH  016%=      5-min Rain = 0
KDC1 250352Z 30009KT 24/M04 A2991 RMK A01 T02351036  RH  016%=      5-min Rain = 0
KDC1 250353Z 29009KT 23/M04 A2991 RMK A01 T02331035  RH  016%=      5-min Rain = 0
KDC1 250354Z 29009KT 23/M03 A2991 RMK A01 T02321034  RH  017%=      5-min Rain = 0
KDC1 250355Z 29009KT 23/M04 A2991 RMK A01 T02311035  RH  017%=      5-min Rain = 0
KDC1 250356Z 30009KT 23/M04 A2991 RMK A01 T02291035  RH  017%=      5-min Rain = 0
KDC1 250357Z 30009KT 23/M04 A2991 RMK A01 T02271036  RH  017%=      5-min Rain = 0
KDC1 250358Z 29009KT 23/M04 A2992 RMK A01 T02261036  RH  017%=      5-min Rain = 0
KDC1 250359Z 33007KT 23/M03 A2992 RMK A01 T02251031  RH  018%=      5-min Rain = 0
KDC1 250400Z 33006KT 22/00 A2992 RMK A01 T02240004  RH  023%=      5-min Rain = 0
KDC1 250401Z 31007KT 22/01 A2992 RMK A01 T02230005  RH  024%=      5-min Rain = 0
KDC1 250402Z 30007KT 23/00 A2992 RMK A01 T02250004  RH  023%=      5-min Rain = 0
KDC1 250403Z 30006KT 23/00 A2992 RMK A01 T02260002  RH  023%=      5-min Rain = 0
KDC1 250404Z 31005KT 23/01 A2992 RMK A01 T02260007  RH  024%=      5-min Rain = 0
KDC1 250405Z 30004KT 22/01 A2992 RMK A01 T02240010  RH  024%=      5-min Rain = 0
KDC1 250406Z 29006KT 22/01 A2992 RMK A01 T02220012  RH  025%=      5-min Rain = 0
KDC1 250407Z 29006KT 22/01 A2992 RMK A01 T02200011  RH  025%=      5-min Rain = 0
KDC1 250408Z 29006KT 22/01 A2992 RMK A01 T02190008  RH  025%=      5-min Rain = 0
KDC1 250409Z 29006KT 22/00 A2992 RMK A01 T02180002  RH  024%=      5-min Rain = 0
KDC1 250410Z 29005KT 22/M00 A2992 RMK A01 T02181003  RH  023%=      5-min Rain = 0
KDC1 250411Z 29004KT 22/M01 A2992 RMK A01 T02171006  RH  022%=      5-min Rain = 0
KDC1 250412Z 29004KT 22/M01 A2992 RMK A01 T02171007  RH  022%=      5-min Rain = 0
KDC1 250413Z 29005KT 22/M01 A2992 RMK A01 T02161014  RH  021%=      5-min Rain = 0
KDC1 250414Z 29006KT 22/M03 A2993 RMK A01 T02161027  RH  019%=      5-min Rain = 0
KDC1 250415Z 30005KT 22/M03 A2993 RMK A01 T02161031  RH  019%=      5-min Rain = 0
KDC1 250416Z 31003KT 22/M03 A2993 RMK A01 T02161030  RH  019%=      5-min Rain = 0
KDC1 250417Z 30004KT 22/M02 A2993 RMK A01 T02151021  RH  020%=      5-min Rain = 0
KDC1 250418Z 30005KT 21/M02 A2993 RMK A01 T02141020  RH  021%=      5-min Rain = 0
KDC1 250419Z 30006KT 22/M02 A2993 RMK A01 T02151023  RH  020%=      5-min Rain = 0
KDC1 250420Z 30005KT 22/M03 A2993 RMK A01 T02161025  RH  020%=      5-min Rain = 0
KDC1 250421Z 33004KT 22/M02 A2993 RMK A01 T02171018  RH  021%=      5-min Rain = 0
KDC1 250422Z 32005KT 22/M00 A2993 RMK A01 T02151004  RH  023%=      5-min Rain = 0
KDC1 250423Z 32005KT 21/M01 A2993 RMK A01 T02141008  RH  023%=      5-min Rain = 0
KDC1 250424Z 33005KT 21/M01 A2993 RMK A01 T02141010  RH  022%=      5-min Rain = 0
KDC1 250425Z 33005KT 21/M01 A2993 RMK A01 T02141006  RH  023%=      5-min Rain = 0
KDC1 250426Z 33005KT 21/M00 A2993 RMK A01 T02131004  RH  023%=      5-min Rain = 0
KDC1 250427Z 34005KT 21/M01 A2993 RMK A01 T02131006  RH  023%=      5-min Rain = 0
KDC1 250428Z 33004KT 21/M00 A2993 RMK A01 T02141003  RH  023%=      5-min Rain = 0
KDC1 250429Z 33003KT 22/00 A2993 RMK A01 T02150004  RH  025%=      5-min Rain = 0
KDC1 250430Z 33003KT 21/01 A2993 RMK A01 T02140009  RH  026%=      5-min Rain = 0
KDC1 250431Z 33003KT 21/01 A2993 RMK A01 T02110009  RH  026%=      5-min Rain = 0
KDC1 250432Z 33004KT 21/01 A2993 RMK A01 T02080007  RH  026%=      5-min Rain = 0
KDC1 250433Z 34004KT 21/01 A2993 RMK A01 T02070005  RH  026%=      5-min Rain = 0
KDC1 250434Z 34003KT 21/00 A2993 RMK A01 T02060004  RH  026%=      5-min Rain = 0
KDC1 250435Z 33002KT 21/00 A2993 RMK A01 T02060002  RH  026%=      5-min Rain = 0
KDC1 250436Z 34003KT 21/M00 A2993 RMK A01 T02051003  RH  025%=      5-min Rain = 0
KDC1 250437Z 34003KT 21/M00 A2993 RMK A01 T02071003  RH  025%=      5-min Rain = 0
KDC1 250438Z 33002KT 21/M00 A2993 RMK A01 T02081003  RH  024%=      5-min Rain = 0
KDC1 250439Z 33003KT 21/M00 A2993 RMK A01 T02101004  RH  024%=      5-min Rain = 0
KDC1 250440Z 34003KT 21/M01 A2993 RMK A01 T02111007  RH  023%=      5-min Rain = 0
KDC1 250441Z 35003KT 21/M01 A2993 RMK A01 T02131011  RH  022%=      5-min Rain = 0
KDC1 250442Z 36003KT 22/M01 A2993 RMK A01 T02151010  RH  022%=      5-min Rain = 0
KDC1 250443Z 35002KT 22/M01 A2994 RMK A01 T02161009  RH  022%=      5-min Rain = 0
KDC1 250444Z 35003KT 22/M01 A2994 RMK A01 T02161010  RH  022%=      5-min Rain = 0
KDC1 250445Z 35003KT 22/M01 A2994 RMK A01 T02171009  RH  022%=      5-min Rain = 0
KDC1 250446Z 34004KT 22/M01 A2994 RMK A01 T02171008  RH  022%=      5-min Rain = 0
KDC1 250447Z 34005KT 22/M01 A2994 RMK A01 T02181008  RH  022%=      5-min Rain = 0
KDC1 250448Z 33006KT 22/M01 A2994 RMK A01 T02181006  RH  022%=      5-min Rain = 0
KDC1 250449Z 33005KT 22/M01 A2994 RMK A01 T02181005  RH  023%=      5-min Rain = 0
KDC1 250450Z 32005KT 22/M01 A2994 RMK A01 T02161007  RH  023%=      5-min Rain = 0
KDC1 250451Z 32005KT 22/M02 A2994 RMK A01 T02151015  RH  021%=      5-min Rain = 0
KDC1 250452Z 33005KT 22/M02 A2994 RMK A01 T02171015  RH  021%=      5-min Rain = 0
KDC1 250453Z 34004KT 22/M02 A2994 RMK A01 T02181016  RH  021%=      5-min Rain = 0
KDC1 250454Z 34004KT 22/M01 A2994 RMK A01 T02191013  RH  021%=      5-min Rain = 0
KDC1 250455Z 33005KT 22/M01 A2994 RMK A01 T02191014  RH  021%=      5-min Rain = 0
KDC1 250456Z 33005KT 22/M02 A2994 RMK A01 T02221018  RH  020%=      5-min Rain = 0
KDC1 250457Z 34005KT 22/M02 A2994 RMK A01 T02241017  RH  020%=      5-min Rain = 0
KDC1 250458Z 34004KT 23/M02 A2994 RMK A01 T02251017  RH  020%=      5-min Rain = 0
KDC1 250459Z 34004KT 22/M02 A2994 RMK A01 T02241023  RH  019%=      5-min Rain = 0

Page generated in 0.0706 seconds.